DAL2990 EGKK-KIAD
Flight info
| Callsign | DAL2990 |
|---|---|
| Flight time | 7h 42m |
| Altitude | 38000 |
| Route | IMVUR N63 SAM N19 ADKIK DCT PEWBI DCT MOPAT DCT TOBOR/M081F390 DCT 53N020W 53N030W 5230N04000W 50N050W DCT ELSIR/N0457F400 N402C ALLEX DCT KAYCC DCT KYLOH DCT BAF HYPER9 |
| Aircraft | A333/H-SDE3GHIJ2J3J5M1RVWXY/LB2D1 |
Departure
| Time | 2026-05-06 18:25 |
|---|---|
| Airport | London Gatwick Airport (EGKK) |
Arrival
| Time | 2026-05-07 02:07 |
|---|---|
| Airport | Washington Dulles International Airport (KIAD) |
| Time | Latitude | Longitude | Altitude | Speed | Heading |
|---|---|---|---|---|---|
| 2026-05-06 17:30 | 51.15846 | -0.17422 | 215 ft | 0 kts | 349° |
| 2026-05-06 18:01 | 51.15849 | -0.17423 | 215 ft | 0 kts | 349° |
| 2026-05-06 18:01 | 51.15833 | -0.17418 | 216 ft | 2 kts | 349° |
| 2026-05-06 18:01 | 51.15816 | -0.17413 | 211 ft | 2 kts | 347° |
| 2026-05-06 18:02 | 51.15800 | -0.17401 | 223 ft | 3 kts | 303° |
| 2026-05-06 18:02 | 51.15793 | -0.17374 | 219 ft | 1 kts | 262° |
| 2026-05-06 18:02 | 51.15793 | -0.17376 | 219 ft | 0 kts | 260° |
| 2026-05-06 18:04 | 51.15792 | -0.17378 | 219 ft | 1 kts | 259° |
| 2026-05-06 18:04 | 51.15781 | -0.17426 | 213 ft | 8 kts | 249° |
| 2026-05-06 18:04 | 51.15761 | -0.17526 | 219 ft | 10 kts | 255° |
| 2026-05-06 18:05 | 51.15750 | -0.17605 | 219 ft | 0 kts | 257° |
| 2026-05-06 18:05 | 51.15747 | -0.17628 | 216 ft | 6 kts | 257° |
| 2026-05-06 18:05 | 51.15742 | -0.17664 | 214 ft | 0 kts | 257° |
| 2026-05-06 18:05 | 51.15740 | -0.17677 | 215 ft | 5 kts | 258° |
| 2026-05-06 18:06 | 51.15846 | -0.17422 | 215 ft | 0 kts | 349° |
| 2026-05-06 18:08 | 51.15847 | -0.17422 | 215 ft | 1 kts | 349° |
| 2026-05-06 18:08 | 51.15831 | -0.17417 | 215 ft | 2 kts | 349° |
| 2026-05-06 18:08 | 51.15814 | -0.17413 | 211 ft | 3 kts | 342° |
| 2026-05-06 18:09 | 51.15798 | -0.17398 | 223 ft | 3 kts | 297° |
| 2026-05-06 18:09 | 51.15793 | -0.17374 | 219 ft | 0 kts | 262° |
| 2026-05-06 18:09 | 51.15783 | -0.17421 | 212 ft | 9 kts | 246° |
| 2026-05-06 18:09 | 51.15748 | -0.17475 | 220 ft | 7 kts | 206° |
| 2026-05-06 18:10 | 51.15697 | -0.17484 | 214 ft | 8 kts | 174° |
| 2026-05-06 18:10 | 51.15636 | -0.17467 | 212 ft | 10 kts | 168° |
| 2026-05-06 18:10 | 51.15564 | -0.17441 | 216 ft | 11 kts | 167° |
| 2026-05-06 18:10 | 51.15484 | -0.17414 | 211 ft | 12 kts | 168° |
| 2026-05-06 18:11 | 51.15458 | -0.17405 | 213 ft | 2 kts | 168° |
| 2026-05-06 18:11 | 51.15440 | -0.17398 | 218 ft | 1 kts | 168° |
| 2026-05-06 18:11 | 51.15435 | -0.17397 | 217 ft | 2 kts | 168° |
| 2026-05-06 18:11 | 51.15408 | -0.17387 | 214 ft | 9 kts | 168° |
| 2026-05-06 18:12 | 51.15343 | -0.17379 | 217 ft | 10 kts | 194° |
| 2026-05-06 18:12 | 51.15303 | -0.17457 | 217 ft | 10 kts | 249° |
| 2026-05-06 18:12 | 51.15285 | -0.17569 | 217 ft | 14 kts | 257° |
| 2026-05-06 18:12 | 51.15257 | -0.17765 | 218 ft | 19 kts | 257° |
| 2026-05-06 18:13 | 51.15234 | -0.17934 | 217 ft | 13 kts | 258° |
| 2026-05-06 18:13 | 51.15213 | -0.18088 | 212 ft | 15 kts | 257° |
| 2026-05-06 18:13 | 51.15190 | -0.18254 | 217 ft | 16 kts | 258° |
| 2026-05-06 18:13 | 51.15168 | -0.18443 | 218 ft | 18 kts | 259° |
| 2026-05-06 18:14 | 51.15142 | -0.18642 | 216 ft | 19 kts | 257° |
| 2026-05-06 18:14 | 51.15113 | -0.18853 | 218 ft | 20 kts | 257° |
| 2026-05-06 18:14 | 51.15083 | -0.19075 | 217 ft | 21 kts | 259° |
| 2026-05-06 18:14 | 51.15058 | -0.19221 | 212 ft | 12 kts | 238° |
| 2026-05-06 18:15 | 51.14978 | -0.19296 | 219 ft | 19 kts | 232° |
| 2026-05-06 18:15 | 51.14921 | -0.19538 | 215 ft | 22 kts | 259° |
| 2026-05-06 18:15 | 51.14892 | -0.19773 | 217 ft | 22 kts | 257° |
| 2026-05-06 18:15 | 51.14856 | -0.20021 | 210 ft | 24 kts | 257° |
| 2026-05-06 18:16 | 51.14820 | -0.20286 | 212 ft | 25 kts | 257° |
| 2026-05-06 18:16 | 51.14783 | -0.20555 | 214 ft | 25 kts | 257° |
| 2026-05-06 18:16 | 51.14746 | -0.20823 | 211 ft | 25 kts | 257° |
| 2026-05-06 18:16 | 51.14719 | -0.21013 | 212 ft | 11 kts | 257° |
| 2026-05-06 18:17 | 51.14701 | -0.21145 | 208 ft | 13 kts | 257° |
| 2026-05-06 18:17 | 51.14692 | -0.21209 | 212 ft | 0 kts | 257° |
| 2026-05-06 18:17 | 51.14691 | -0.21214 | 211 ft | 0 kts | 257° |
| 2026-05-06 18:17 | 51.14691 | -0.21215 | 211 ft | 0 kts | 257° |
| 2026-05-06 18:21 | 51.14691 | -0.21217 | 211 ft | 1 kts | 257° |
| 2026-05-06 18:21 | 51.14687 | -0.21248 | 213 ft | 4 kts | 257° |
| 2026-05-06 18:21 | 51.14681 | -0.21276 | 216 ft | 3 kts | 249° |
| 2026-05-06 18:21 | 51.14674 | -0.21299 | 211 ft | 0 kts | 242° |
| 2026-05-06 18:22 | 51.14650 | -0.21321 | 212 ft | 9 kts | 198° |
| 2026-05-06 18:22 | 51.14625 | -0.21322 | 216 ft | 0 kts | 174° |
| 2026-05-06 18:22 | 51.14620 | -0.21321 | 216 ft | 1 kts | 174° |
| 2026-05-06 18:23 | 51.14617 | -0.21321 | 216 ft | 0 kts | 174° |
| 2026-05-06 18:24 | 51.14599 | -0.21315 | 210 ft | 8 kts | 167° |
| 2026-05-06 18:24 | 51.14529 | -0.21234 | 219 ft | 0 kts | 127° |
| 2026-05-06 18:24 | 51.14519 | -0.21194 | 217 ft | 3 kts | 98° |
| 2026-05-06 18:24 | 51.14531 | -0.21059 | 215 ft | 26 kts | 78° |
| 2026-05-06 18:25 | 51.14603 | -0.20545 | 218 ft | 84 kts | 78° |
| 2026-05-06 18:25 | 51.14791 | -0.19187 | 214 ft | 166 kts | 77° |
| 2026-05-06 18:25 | 51.15092 | -0.17063 | 499 ft | 222 kts | 77° |
| 2026-05-06 18:25 | 51.15448 | -0.14537 | 1481 ft | 240 kts | 77° |
| 2026-05-06 18:26 | 51.15769 | -0.12184 | 2374 ft | 189 kts | 78° |
| 2026-05-06 18:26 | 51.16014 | -0.10359 | 2876 ft | 156 kts | 78° |
| 2026-05-06 18:26 | 51.16252 | -0.08710 | 3004 ft | 151 kts | 73° |
| 2026-05-06 18:26 | 51.16689 | -0.07183 | 3002 ft | 152 kts | 55° |
| 2026-05-06 18:27 | 51.17426 | -0.05994 | 3001 ft | 151 kts | 33° |
| 2026-05-06 18:27 | 51.18381 | -0.05315 | 2999 ft | 151 kts | 12° |
| 2026-05-06 18:27 | 51.19422 | -0.05227 | 3001 ft | 150 kts | 352° |
| 2026-05-06 18:27 | 51.20433 | -0.05523 | 3002 ft | 150 kts | 347° |
| 2026-05-06 18:28 | 51.21422 | -0.06046 | 2997 ft | 150 kts | 332° |
| 2026-05-06 18:28 | 51.22230 | -0.07070 | 2998 ft | 149 kts | 308° |
| 2026-05-06 18:28 | 51.22699 | -0.08522 | 3001 ft | 148 kts | 284° |
| 2026-05-06 18:28 | 51.22754 | -0.10157 | 3002 ft | 148 kts | 263° |
| 2026-05-06 18:29 | 51.22584 | -0.11802 | 3000 ft | 161 kts | 259° |
| 2026-05-06 18:29 | 51.22335 | -0.13851 | 2987 ft | 215 kts | 259° |
| 2026-05-06 18:29 | 51.22022 | -0.16452 | 3036 ft | 257 kts | 259° |
| 2026-05-06 18:29 | 51.21680 | -0.19367 | 3538 ft | 272 kts | 259° |
| 2026-05-06 18:30 | 51.21334 | -0.22329 | 4474 ft | 271 kts | 259° |
| 2026-05-06 18:30 | 51.20990 | -0.25294 | 5376 ft | 272 kts | 259° |
| 2026-05-06 18:30 | 51.20643 | -0.28276 | 6250 ft | 275 kts | 259° |
| 2026-05-06 18:30 | 51.20292 | -0.31301 | 7103 ft | 279 kts | 259° |
| 2026-05-06 18:31 | 51.19931 | -0.34331 | 7952 ft | 283 kts | 259° |
| 2026-05-06 18:31 | 51.19528 | -0.37494 | 8546 ft | 299 kts | 258° |
| 2026-05-06 18:31 | 51.19094 | -0.40851 | 8583 ft | 321 kts | 258° |
| 2026-05-06 18:31 | 51.18642 | -0.44308 | 8818 ft | 317 kts | 258° |
| 2026-05-06 18:32 | 51.18203 | -0.47659 | 8992 ft | 299 kts | 258° |
| 2026-05-06 18:32 | 51.17783 | -0.50851 | 9002 ft | 291 kts | 258° |
| 2026-05-06 18:32 | 51.17268 | -0.53961 | 9001 ft | 290 kts | 252° |
| 2026-05-06 18:32 | 51.16586 | -0.56993 | 9000 ft | 291 kts | 249° |
| 2026-05-06 18:33 | 51.15813 | -0.59973 | 9000 ft | 291 kts | 247° |
| 2026-05-06 18:33 | 51.15006 | -0.62901 | 9000 ft | 291 kts | 246° |
| 2026-05-06 18:33 | 51.14181 | -0.65849 | 9003 ft | 291 kts | 246° |
| 2026-05-06 18:33 | 51.13365 | -0.68783 | 9313 ft | 290 kts | 246° |
| 2026-05-06 18:34 | 51.12548 | -0.71758 | 9967 ft | 295 kts | 246° |
| 2026-05-06 18:34 | 51.11719 | -0.74808 | 10555 ft | 310 kts | 247° |
| 2026-05-06 18:34 | 51.10839 | -0.78073 | 10894 ft | 331 kts | 247° |
| 2026-05-06 18:34 | 51.09920 | -0.81495 | 11458 ft | 341 kts | 247° |
| 2026-05-06 18:35 | 51.09298 | -0.83815 | 11939 ft | 345 kts | 247° |
| 2026-05-06 18:35 | 51.08347 | -0.87354 | 12708 ft | 349 kts | 247° |
| 2026-05-06 18:35 | 51.07387 | -0.90924 | 13446 ft | 353 kts | 247° |
| 2026-05-06 18:35 | 51.06092 | -0.95729 | 14420 ft | 359 kts | 247° |
| 2026-05-06 18:36 | 51.05423 | -0.98205 | 14895 ft | 362 kts | 247° |
| 2026-05-06 18:36 | 51.04424 | -1.01896 | 15581 ft | 366 kts | 247° |
| 2026-05-06 18:36 | 51.03410 | -1.05635 | 16262 ft | 370 kts | 247° |
| 2026-05-06 18:36 | 51.02389 | -1.09394 | 16782 ft | 372 kts | 246° |
| 2026-05-06 18:37 | 51.01372 | -1.13133 | 16965 ft | 374 kts | 246° |
| 2026-05-06 18:37 | 51.00336 | -1.16936 | 17002 ft | 375 kts | 246° |
| 2026-05-06 18:37 | 50.99301 | -1.20736 | 17000 ft | 376 kts | 248° |
| 2026-05-06 18:37 | 50.98524 | -1.24685 | 16999 ft | 376 kts | 259° |
| 2026-05-06 18:38 | 50.98334 | -1.28811 | 17002 ft | 375 kts | 272° |
| 2026-05-06 18:38 | 50.98530 | -1.32947 | 17000 ft | 375 kts | 277° |
| 2026-05-06 18:38 | 50.98905 | -1.37045 | 17000 ft | 375 kts | 279° |
| 2026-05-06 18:38 | 50.99374 | -1.41118 | 17040 ft | 376 kts | 281° |
| 2026-05-06 18:39 | 50.99886 | -1.45227 | 17458 ft | 379 kts | 281° |
| 2026-05-06 18:39 | 51.00395 | -1.49301 | 18154 ft | 381 kts | 281° |
| 2026-05-06 18:39 | 51.00899 | -1.53442 | 18834 ft | 384 kts | 281° |
| 2026-05-06 18:40 | 51.01880 | -1.61874 | 20013 ft | 391 kts | 280° |
| 2026-05-06 18:40 | 51.02361 | -1.66146 | 20592 ft | 395 kts | 280° |
| 2026-05-06 18:40 | 51.02842 | -1.70462 | 21127 ft | 398 kts | 280° |
| 2026-05-06 18:40 | 51.03324 | -1.74815 | 21675 ft | 402 kts | 280° |
| 2026-05-06 18:41 | 51.03807 | -1.79197 | 22203 ft | 405 kts | 280° |
| 2026-05-06 18:41 | 51.04294 | -1.83619 | 22731 ft | 408 kts | 280° |
| 2026-05-06 18:41 | 51.04783 | -1.88083 | 23229 ft | 411 kts | 279° |
| 2026-05-06 18:41 | 51.05278 | -1.92606 | 23725 ft | 415 kts | 279° |
| 2026-05-06 18:42 | 51.05772 | -1.97133 | 24188 ft | 418 kts | 279° |
| 2026-05-06 18:42 | 51.06270 | -2.01706 | 24651 ft | 421 kts | 279° |
| 2026-05-06 18:42 | 51.06769 | -2.06315 | 25102 ft | 424 kts | 279° |
| 2026-05-06 18:42 | 51.07269 | -2.10950 | 25535 ft | 427 kts | 279° |
| 2026-05-06 18:43 | 51.07771 | -2.15624 | 25949 ft | 430 kts | 279° |
| 2026-05-06 18:43 | 51.08275 | -2.20331 | 26356 ft | 433 kts | 279° |
| 2026-05-06 18:43 | 51.08782 | -2.25082 | 26756 ft | 436 kts | 279° |
| 2026-05-06 18:43 | 51.09288 | -2.29850 | 27152 ft | 438 kts | 279° |
| 2026-05-06 18:44 | 51.09792 | -2.34614 | 27535 ft | 441 kts | 279° |
| 2026-05-06 18:44 | 51.10300 | -2.39434 | 27900 ft | 444 kts | 279° |
| 2026-05-06 18:44 | 51.10809 | -2.44293 | 28266 ft | 446 kts | 279° |
| 2026-05-06 18:44 | 51.11321 | -2.49191 | 28635 ft | 449 kts | 279° |
| 2026-05-06 18:45 | 51.11832 | -2.54102 | 28994 ft | 451 kts | 279° |
| 2026-05-06 18:45 | 51.12343 | -2.59043 | 29351 ft | 454 kts | 279° |
| 2026-05-06 18:45 | 51.12856 | -2.64016 | 29684 ft | 456 kts | 279° |
| 2026-05-06 18:45 | 51.13371 | -2.69026 | 30023 ft | 458 kts | 279° |
| 2026-05-06 18:46 | 51.13884 | -2.74046 | 30339 ft | 461 kts | 279° |
| 2026-05-06 18:46 | 51.14398 | -2.79101 | 30655 ft | 463 kts | 279° |
| 2026-05-06 18:46 | 51.14913 | -2.84181 | 30961 ft | 465 kts | 279° |
| 2026-05-06 18:46 | 51.15422 | -2.89233 | 31257 ft | 468 kts | 279° |
| 2026-05-06 18:47 | 51.15937 | -2.94360 | 31546 ft | 470 kts | 279° |
| 2026-05-06 18:47 | 51.16452 | -2.99507 | 31830 ft | 472 kts | 279° |
| 2026-05-06 18:47 | 51.16967 | -3.04686 | 32119 ft | 474 kts | 279° |
| 2026-05-06 18:47 | 51.17483 | -3.09903 | 32402 ft | 476 kts | 279° |
| 2026-05-06 18:48 | 51.17997 | -3.15116 | 32779 ft | 475 kts | 279° |
| 2026-05-06 18:48 | 51.18507 | -3.20318 | 33185 ft | 474 kts | 279° |
| 2026-05-06 18:48 | 51.19013 | -3.25498 | 33560 ft | 473 kts | 278° |
| 2026-05-06 18:48 | 51.19517 | -3.30688 | 33935 ft | 472 kts | 278° |
| 2026-05-06 18:49 | 51.20017 | -3.35863 | 34302 ft | 471 kts | 278° |
| 2026-05-06 18:49 | 51.20513 | -3.41022 | 34658 ft | 471 kts | 278° |
| 2026-05-06 18:49 | 51.21001 | -3.46115 | 35012 ft | 470 kts | 278° |
| 2026-05-06 18:49 | 51.21493 | -3.51276 | 35328 ft | 470 kts | 278° |
| 2026-05-06 18:50 | 51.21982 | -3.56436 | 35621 ft | 470 kts | 278° |
| 2026-05-06 18:50 | 51.22469 | -3.61596 | 35923 ft | 470 kts | 278° |
| 2026-05-06 18:50 | 51.22952 | -3.66735 | 36244 ft | 469 kts | 278° |
| 2026-05-06 18:50 | 51.23433 | -3.71879 | 36546 ft | 468 kts | 278° |
| 2026-05-06 18:51 | 51.23912 | -3.77029 | 36833 ft | 468 kts | 278° |
| 2026-05-06 18:51 | 51.24386 | -3.82161 | 37084 ft | 468 kts | 278° |
| 2026-05-06 18:51 | 51.24860 | -3.87301 | 37340 ft | 468 kts | 278° |
| 2026-05-06 18:51 | 51.25326 | -3.92386 | 37583 ft | 468 kts | 278° |
| 2026-05-06 18:52 | 51.25795 | -3.97530 | 37834 ft | 468 kts | 278° |
| 2026-05-06 18:52 | 51.26262 | -4.02681 | 37985 ft | 469 kts | 278° |
| 2026-05-06 18:52 | 51.26728 | -4.07840 | 38001 ft | 469 kts | 278° |
| 2026-05-06 18:53 | 51.27652 | -4.18158 | 38000 ft | 469 kts | 278° |
| 2026-05-06 18:53 | 51.28568 | -4.28483 | 38000 ft | 469 kts | 278° |
| 2026-05-06 18:54 | 51.29474 | -4.38813 | 38000 ft | 469 kts | 278° |
| 2026-05-06 18:54 | 51.30370 | -4.49127 | 38000 ft | 469 kts | 278° |
| 2026-05-06 18:55 | 51.31252 | -4.59392 | 38000 ft | 469 kts | 278° |
| 2026-05-06 18:55 | 51.32130 | -4.69722 | 38000 ft | 469 kts | 277° |
| 2026-05-06 18:56 | 51.33000 | -4.80062 | 38000 ft | 469 kts | 277° |
| 2026-05-06 18:56 | 51.33860 | -4.90401 | 38000 ft | 469 kts | 277° |
| 2026-05-06 18:57 | 51.34712 | -5.00754 | 38000 ft | 469 kts | 277° |
| 2026-05-06 18:57 | 51.35554 | -5.11104 | 38000 ft | 469 kts | 277° |
| 2026-05-06 18:58 | 51.36386 | -5.21446 | 38000 ft | 469 kts | 277° |
| 2026-05-06 18:58 | 51.37208 | -5.31785 | 38000 ft | 469 kts | 277° |
| 2026-05-06 18:59 | 51.38023 | -5.42147 | 38000 ft | 469 kts | 277° |
| 2026-05-06 18:59 | 51.38823 | -5.52437 | 38000 ft | 469 kts | 277° |
| 2026-05-06 19:00 | 51.39619 | -5.62792 | 38000 ft | 469 kts | 277° |
| 2026-05-06 19:00 | 51.40406 | -5.73159 | 38000 ft | 469 kts | 277° |
| 2026-05-06 19:01 | 51.41183 | -5.83518 | 38000 ft | 468 kts | 277° |
| 2026-05-06 19:01 | 51.41951 | -5.93889 | 38000 ft | 468 kts | 277° |
| 2026-05-06 19:02 | 51.42710 | -6.04249 | 38000 ft | 468 kts | 276° |
| 2026-05-06 19:02 | 51.43460 | -6.14627 | 38000 ft | 468 kts | 276° |
| 2026-05-06 19:03 | 51.44201 | -6.25009 | 38000 ft | 468 kts | 276° |
| 2026-05-06 19:03 | 51.44934 | -6.35404 | 38000 ft | 468 kts | 276° |
| 2026-05-06 19:04 | 51.45652 | -6.45728 | 38000 ft | 468 kts | 276° |
| 2026-05-06 19:04 | 51.46365 | -6.56113 | 38000 ft | 468 kts | 276° |
| 2026-05-06 19:05 | 51.47066 | -6.66447 | 38000 ft | 468 kts | 276° |
| 2026-05-06 19:05 | 51.47761 | -6.76850 | 38000 ft | 468 kts | 276° |
| 2026-05-06 19:06 | 51.48447 | -6.87237 | 38000 ft | 468 kts | 276° |
| 2026-05-06 19:06 | 51.49122 | -6.97619 | 38000 ft | 468 kts | 276° |
| 2026-05-06 19:07 | 51.49846 | -7.08011 | 38000 ft | 468 kts | 280° |
| 2026-05-06 19:07 | 51.51297 | -7.18196 | 38000 ft | 468 kts | 284° |
| 2026-05-06 19:08 | 51.52923 | -7.28327 | 38000 ft | 468 kts | 284° |
| 2026-05-06 19:08 | 51.54569 | -7.38393 | 38000 ft | 468 kts | 284° |
| 2026-05-06 19:09 | 51.56204 | -7.48508 | 38000 ft | 468 kts | 284° |
| 2026-05-06 19:09 | 51.57823 | -7.58648 | 38000 ft | 468 kts | 284° |
| 2026-05-06 19:10 | 51.59430 | -7.68799 | 38000 ft | 468 kts | 284° |
| 2026-05-06 19:10 | 51.61027 | -7.78953 | 38000 ft | 468 kts | 284° |
| 2026-05-06 19:11 | 51.62617 | -7.89117 | 38000 ft | 468 kts | 284° |
| 2026-05-06 19:11 | 51.64197 | -7.99283 | 38000 ft | 468 kts | 284° |
| 2026-05-06 19:12 | 51.65757 | -8.09388 | 38000 ft | 468 kts | 284° |
| 2026-05-06 19:12 | 51.67320 | -8.19567 | 38000 ft | 468 kts | 284° |
| 2026-05-06 19:13 | 51.68873 | -8.29751 | 38000 ft | 468 kts | 283° |
| 2026-05-06 19:13 | 51.70417 | -8.39936 | 38000 ft | 468 kts | 283° |
| 2026-05-06 19:14 | 51.71953 | -8.50136 | 38000 ft | 468 kts | 283° |
| 2026-05-06 19:14 | 51.73478 | -8.60332 | 38000 ft | 468 kts | 283° |
| 2026-05-06 19:15 | 51.74987 | -8.70483 | 38000 ft | 468 kts | 283° |
| 2026-05-06 19:15 | 51.76497 | -8.80703 | 38000 ft | 468 kts | 283° |
| 2026-05-06 19:16 | 51.77999 | -8.90943 | 38000 ft | 468 kts | 283° |
| 2026-05-06 19:16 | 51.79491 | -9.01182 | 38000 ft | 468 kts | 283° |
| 2026-05-06 19:17 | 51.80976 | -9.11433 | 38000 ft | 468 kts | 283° |
| 2026-05-06 19:17 | 51.82453 | -9.21707 | 38000 ft | 469 kts | 283° |
| 2026-05-06 19:18 | 51.83672 | -9.30232 | 38000 ft | 469 kts | 283° |
| 2026-05-06 19:18 | 51.85132 | -9.40508 | 38000 ft | 469 kts | 283° |
| 2026-05-06 19:19 | 51.86586 | -9.50816 | 38000 ft | 470 kts | 283° |
| 2026-05-06 19:19 | 51.88030 | -9.61119 | 38000 ft | 468 kts | 283° |
| 2026-05-06 19:20 | 51.89460 | -9.71394 | 38000 ft | 468 kts | 282° |
| 2026-05-06 19:20 | 51.90881 | -9.81676 | 38000 ft | 468 kts | 282° |
| 2026-05-06 19:21 | 51.92295 | -9.91973 | 38000 ft | 469 kts | 282° |
| 2026-05-06 19:21 | 51.93692 | -10.02227 | 38000 ft | 468 kts | 282° |
| 2026-05-06 19:22 | 51.95088 | -10.12538 | 38000 ft | 468 kts | 282° |
| 2026-05-06 19:22 | 51.96474 | -10.22856 | 38000 ft | 467 kts | 282° |
| 2026-05-06 19:23 | 51.97849 | -10.33159 | 38000 ft | 467 kts | 282° |
| 2026-05-06 19:23 | 51.99214 | -10.43465 | 38000 ft | 467 kts | 282° |
| 2026-05-06 19:24 | 52.00563 | -10.53717 | 38000 ft | 467 kts | 282° |
| 2026-05-06 19:24 | 52.01909 | -10.64027 | 38000 ft | 467 kts | 282° |
| 2026-05-06 19:25 | 52.03247 | -10.74350 | 38000 ft | 467 kts | 282° |
| 2026-05-06 19:25 | 52.04575 | -10.84673 | 38000 ft | 467 kts | 282° |
| 2026-05-06 19:26 | 52.05895 | -10.95003 | 38000 ft | 467 kts | 282° |
| 2026-05-06 19:26 | 52.07205 | -11.05334 | 38000 ft | 467 kts | 281° |
| 2026-05-06 19:27 | 52.08507 | -11.15683 | 38000 ft | 467 kts | 281° |
| 2026-05-06 19:27 | 52.09792 | -11.25974 | 38000 ft | 467 kts | 281° |
| 2026-05-06 19:28 | 52.11075 | -11.36323 | 38000 ft | 467 kts | 281° |
| 2026-05-06 19:28 | 52.12350 | -11.46693 | 38000 ft | 466 kts | 281° |
| 2026-05-06 19:29 | 52.13608 | -11.56998 | 38000 ft | 466 kts | 281° |
| 2026-05-06 19:29 | 52.14863 | -11.67363 | 38000 ft | 466 kts | 281° |
| 2026-05-06 19:30 | 52.16110 | -11.77747 | 38000 ft | 466 kts | 281° |
| 2026-05-06 19:30 | 52.17347 | -11.88116 | 38000 ft | 466 kts | 281° |
| 2026-05-06 19:31 | 52.18574 | -11.98494 | 38000 ft | 466 kts | 281° |
| 2026-05-06 19:31 | 52.20392 | -12.14021 | 38000 ft | 466 kts | 281° |
| 2026-05-06 19:32 | 52.21599 | -12.24433 | 38000 ft | 466 kts | 281° |
| 2026-05-06 19:32 | 52.22796 | -12.34840 | 38000 ft | 466 kts | 280° |
| 2026-05-06 19:33 | 52.23982 | -12.45245 | 38000 ft | 466 kts | 280° |
| 2026-05-06 19:33 | 52.25153 | -12.55593 | 38000 ft | 466 kts | 280° |
| 2026-05-06 19:34 | 52.26320 | -12.66001 | 38000 ft | 466 kts | 280° |
| 2026-05-06 19:34 | 52.27478 | -12.76413 | 38000 ft | 466 kts | 280° |
| 2026-05-06 19:35 | 52.28627 | -12.86830 | 38000 ft | 466 kts | 280° |
| 2026-05-06 19:35 | 52.29768 | -12.97264 | 38000 ft | 466 kts | 280° |
| 2026-05-06 19:36 | 52.30900 | -13.07710 | 38000 ft | 466 kts | 280° |
| 2026-05-06 19:36 | 52.32016 | -13.18088 | 38000 ft | 466 kts | 280° |
| 2026-05-06 19:37 | 52.33134 | -13.28584 | 38000 ft | 466 kts | 279° |
| 2026-05-06 19:37 | 52.34236 | -13.39021 | 38000 ft | 466 kts | 279° |
| 2026-05-06 19:38 | 52.35327 | -13.49441 | 38000 ft | 466 kts | 279° |
| 2026-05-06 19:38 | 52.36411 | -13.59891 | 38000 ft | 466 kts | 279° |
| 2026-05-06 19:39 | 52.37487 | -13.70352 | 38000 ft | 466 kts | 279° |
| 2026-05-06 19:39 | 52.38546 | -13.80749 | 38000 ft | 466 kts | 279° |
| 2026-05-06 19:40 | 52.39602 | -13.91209 | 38000 ft | 466 kts | 279° |
| 2026-05-06 19:40 | 52.40649 | -14.01683 | 38000 ft | 466 kts | 279° |
| 2026-05-06 19:41 | 52.41687 | -14.12158 | 38000 ft | 466 kts | 279° |
| 2026-05-06 19:41 | 52.42716 | -14.22635 | 38000 ft | 466 kts | 279° |
| 2026-05-06 19:42 | 52.43730 | -14.33068 | 38000 ft | 465 kts | 279° |
| 2026-05-06 19:42 | 52.44739 | -14.43538 | 38000 ft | 465 kts | 279° |
| 2026-05-06 19:43 | 52.45741 | -14.54047 | 38000 ft | 465 kts | 279° |
| 2026-05-06 19:43 | 52.46731 | -14.64535 | 38000 ft | 465 kts | 278° |
| 2026-05-06 19:44 | 52.47713 | -14.75030 | 38000 ft | 465 kts | 278° |
| 2026-05-06 19:44 | 52.48685 | -14.85522 | 38000 ft | 465 kts | 278° |
| 2026-05-06 19:45 | 52.49642 | -14.95961 | 38000 ft | 465 kts | 278° |
| 2026-05-06 19:45 | 52.50720 | -15.06427 | 38000 ft | 465 kts | 281° |
| 2026-05-06 19:46 | 52.51999 | -15.16845 | 38000 ft | 465 kts | 281° |
| 2026-05-06 19:46 | 52.53296 | -15.27271 | 38000 ft | 465 kts | 281° |
| 2026-05-06 19:47 | 52.54558 | -15.37693 | 38000 ft | 465 kts | 281° |
| 2026-05-06 19:47 | 52.55790 | -15.48073 | 38000 ft | 465 kts | 281° |
| 2026-05-06 19:48 | 52.57015 | -15.58507 | 38000 ft | 465 kts | 281° |
| 2026-05-06 19:48 | 52.58235 | -15.68986 | 38000 ft | 465 kts | 281° |
| 2026-05-06 19:49 | 52.59443 | -15.79436 | 38000 ft | 465 kts | 281° |
| 2026-05-06 19:49 | 52.60644 | -15.89900 | 38000 ft | 465 kts | 281° |
| 2026-05-06 19:50 | 52.61826 | -16.00290 | 38000 ft | 465 kts | 280° |
| 2026-05-06 19:50 | 52.63007 | -16.10759 | 38004 ft | 465 kts | 280° |
| 2026-05-06 19:51 | 52.63594 | -16.15999 | 38158 ft | 466 kts | 280° |
| 2026-05-06 19:51 | 52.64180 | -16.21249 | 38415 ft | 465 kts | 280° |
| 2026-05-06 19:51 | 52.64763 | -16.26495 | 38675 ft | 465 kts | 280° |
| 2026-05-06 19:51 | 52.65343 | -16.31732 | 38910 ft | 464 kts | 280° |
| 2026-05-06 19:52 | 52.66500 | -16.42253 | 38997 ft | 468 kts | 280° |
| 2026-05-06 19:52 | 52.67644 | -16.52746 | 38995 ft | 468 kts | 280° |
| 2026-05-06 19:53 | 52.68788 | -16.63324 | 38999 ft | 468 kts | 280° |
| 2026-05-06 19:53 | 52.69353 | -16.68582 | 38801 ft | 460 kts | 280° |
| 2026-05-06 19:53 | 52.69904 | -16.73737 | 38547 ft | 453 kts | 280° |
| 2026-05-06 19:54 | 52.70444 | -16.78813 | 38304 ft | 445 kts | 280° |
| 2026-05-06 19:54 | 52.70975 | -16.83821 | 38070 ft | 440 kts | 279° |
| 2026-05-06 19:54 | 52.72021 | -16.93759 | 37999 ft | 441 kts | 279° |
| 2026-05-06 19:55 | 52.73059 | -17.03691 | 38000 ft | 442 kts | 279° |
| 2026-05-06 19:55 | 52.74094 | -17.13692 | 38000 ft | 442 kts | 279° |
| 2026-05-06 19:56 | 52.75123 | -17.23704 | 38000 ft | 442 kts | 279° |
| 2026-05-06 19:56 | 52.76136 | -17.33661 | 38000 ft | 442 kts | 279° |
| 2026-05-06 19:57 | 52.77147 | -17.43673 | 38000 ft | 442 kts | 279° |
| 2026-05-06 19:57 | 52.78149 | -17.53693 | 38000 ft | 442 kts | 279° |
| 2026-05-06 19:58 | 52.79143 | -17.63718 | 38000 ft | 442 kts | 279° |
| 2026-05-06 19:58 | 52.80121 | -17.73676 | 38000 ft | 442 kts | 279° |
| 2026-05-06 19:59 | 52.81097 | -17.83701 | 38000 ft | 442 kts | 279° |
| 2026-05-06 19:59 | 52.82066 | -17.93739 | 38000 ft | 442 kts | 279° |
| 2026-05-06 20:00 | 52.83027 | -18.03791 | 38000 ft | 442 kts | 279° |
| 2026-05-06 20:00 | 52.83974 | -18.13796 | 38000 ft | 442 kts | 279° |
| 2026-05-06 20:01 | 52.84917 | -18.23841 | 38000 ft | 442 kts | 278° |
| 2026-05-06 20:01 | 52.85851 | -18.33889 | 38000 ft | 442 kts | 278° |
| 2026-05-06 20:02 | 52.86776 | -18.43943 | 38000 ft | 442 kts | 278° |
| 2026-05-06 20:02 | 52.87693 | -18.53997 | 38000 ft | 442 kts | 278° |
| 2026-05-06 20:03 | 52.88595 | -18.63990 | 38000 ft | 442 kts | 278° |
| 2026-05-06 20:03 | 52.89500 | -18.74109 | 38000 ft | 442 kts | 278° |
| 2026-05-06 20:04 | 52.90386 | -18.84117 | 38000 ft | 442 kts | 278° |
| 2026-05-06 20:04 | 52.91269 | -18.94195 | 38000 ft | 442 kts | 278° |
| 2026-05-06 20:05 | 52.91997 | -19.02573 | 38000 ft | 442 kts | 278° |
| 2026-05-06 20:05 | 52.92863 | -19.12643 | 38000 ft | 442 kts | 278° |
| 2026-05-06 20:06 | 52.93722 | -19.22730 | 38000 ft | 442 kts | 278° |
| 2026-05-06 20:06 | 52.94572 | -19.32817 | 38000 ft | 442 kts | 278° |
| 2026-05-06 20:07 | 52.95414 | -19.42910 | 38000 ft | 442 kts | 278° |
| 2026-05-06 20:07 | 52.96248 | -19.53014 | 38000 ft | 442 kts | 277° |
| 2026-05-06 20:08 | 52.97067 | -19.63044 | 38000 ft | 442 kts | 277° |
| 2026-05-06 20:08 | 52.97884 | -19.73169 | 38000 ft | 442 kts | 277° |
| 2026-05-06 20:09 | 52.98692 | -19.83281 | 38000 ft | 442 kts | 277° |
| 2026-05-06 20:09 | 52.99492 | -19.93400 | 38000 ft | 442 kts | 277° |
| 2026-05-06 20:10 | 53.00209 | -20.03464 | 38000 ft | 442 kts | 275° |
| 2026-05-06 20:10 | 53.00650 | -20.13635 | 38000 ft | 442 kts | 273° |
| 2026-05-06 20:11 | 53.01014 | -20.23818 | 38000 ft | 442 kts | 273° |
| 2026-05-06 20:11 | 53.01391 | -20.34022 | 38000 ft | 442 kts | 274° |
| 2026-05-06 20:12 | 53.01777 | -20.44135 | 38000 ft | 442 kts | 274° |
| 2026-05-06 20:12 | 53.02165 | -20.54331 | 38000 ft | 442 kts | 274° |
| 2026-05-06 20:13 | 53.02543 | -20.64507 | 38000 ft | 442 kts | 273° |
| 2026-05-06 20:13 | 53.02913 | -20.74698 | 38000 ft | 442 kts | 273° |
| 2026-05-06 20:14 | 53.03272 | -20.84881 | 38000 ft | 442 kts | 273° |
| 2026-05-06 20:14 | 53.03623 | -20.95076 | 38000 ft | 442 kts | 273° |
| 2026-05-06 20:15 | 53.03963 | -21.05209 | 38000 ft | 442 kts | 273° |
| 2026-05-06 20:15 | 53.04297 | -21.15401 | 38000 ft | 442 kts | 273° |
| 2026-05-06 20:16 | 53.04622 | -21.25596 | 38000 ft | 442 kts | 273° |
| 2026-05-06 20:16 | 53.04939 | -21.35822 | 38000 ft | 442 kts | 273° |
| 2026-05-06 20:17 | 53.05245 | -21.45969 | 38000 ft | 442 kts | 272° |
| 2026-05-06 20:17 | 53.05543 | -21.56161 | 38000 ft | 442 kts | 272° |
| 2026-05-06 20:18 | 53.05834 | -21.66371 | 38000 ft | 442 kts | 272° |
| 2026-05-06 20:18 | 53.06115 | -21.76587 | 38000 ft | 442 kts | 272° |
| 2026-05-06 20:19 | 53.06388 | -21.86781 | 38000 ft | 442 kts | 272° |
| 2026-05-06 20:19 | 53.06651 | -21.96992 | 38000 ft | 442 kts | 272° |
| 2026-05-06 20:20 | 53.06906 | -22.07192 | 38000 ft | 442 kts | 272° |
| 2026-05-06 20:20 | 53.07151 | -22.17332 | 38000 ft | 442 kts | 272° |
| 2026-05-06 20:21 | 53.07389 | -22.27546 | 38000 ft | 442 kts | 272° |
| 2026-05-06 20:21 | 53.07618 | -22.37746 | 38000 ft | 442 kts | 272° |
| 2026-05-06 20:22 | 53.07838 | -22.47948 | 38000 ft | 442 kts | 272° |
| 2026-05-06 20:22 | 53.08049 | -22.58169 | 38000 ft | 442 kts | 272° |
| 2026-05-06 20:23 | 53.08252 | -22.68385 | 38000 ft | 442 kts | 272° |
| 2026-05-06 20:23 | 53.08446 | -22.78597 | 38000 ft | 442 kts | 271° |
| 2026-05-06 20:24 | 53.08631 | -22.88803 | 38000 ft | 442 kts | 271° |
| 2026-05-06 20:24 | 53.08807 | -22.98959 | 38000 ft | 442 kts | 271° |
| 2026-05-06 20:25 | 53.08975 | -23.09173 | 38000 ft | 442 kts | 271° |
| 2026-05-06 20:25 | 53.09134 | -23.19382 | 38000 ft | 442 kts | 271° |
| 2026-05-06 20:26 | 53.09284 | -23.29592 | 38000 ft | 442 kts | 271° |
| 2026-05-06 20:26 | 53.09425 | -23.39824 | 38000 ft | 442 kts | 271° |
| 2026-05-06 20:27 | 53.09558 | -23.50044 | 38000 ft | 442 kts | 271° |
| 2026-05-06 20:27 | 53.09682 | -23.60253 | 38000 ft | 442 kts | 271° |
| 2026-05-06 20:28 | 53.09798 | -23.70492 | 38000 ft | 442 kts | 271° |
| 2026-05-06 20:28 | 53.09904 | -23.80699 | 38000 ft | 442 kts | 271° |
| 2026-05-06 20:29 | 53.10002 | -23.90922 | 38000 ft | 442 kts | 271° |
| 2026-05-06 20:29 | 53.10091 | -24.01147 | 38000 ft | 442 kts | 271° |
| 2026-05-06 20:30 | 53.10208 | -24.16414 | 38000 ft | 442 kts | 270° |
| 2026-05-06 20:31 | 53.10275 | -24.26630 | 38000 ft | 442 kts | 270° |
| 2026-05-06 20:31 | 53.10333 | -24.36868 | 38000 ft | 442 kts | 270° |
| 2026-05-06 20:32 | 53.10383 | -24.47097 | 38000 ft | 442 kts | 270° |
| 2026-05-06 20:32 | 53.10424 | -24.57329 | 38000 ft | 442 kts | 270° |
| 2026-05-06 20:33 | 53.10456 | -24.67551 | 38000 ft | 442 kts | 270° |
| 2026-05-06 20:33 | 53.10479 | -24.77705 | 38000 ft | 442 kts | 270° |
| 2026-05-06 20:34 | 53.10494 | -24.87926 | 38000 ft | 442 kts | 270° |
| 2026-05-06 20:34 | 53.10500 | -24.98164 | 38000 ft | 442 kts | 270° |
| 2026-05-06 20:35 | 53.10497 | -25.08399 | 38000 ft | 442 kts | 270° |
| 2026-05-06 20:35 | 53.10486 | -25.18577 | 38000 ft | 442 kts | 270° |
| 2026-05-06 20:36 | 53.10465 | -25.28799 | 38000 ft | 442 kts | 270° |
| 2026-05-06 20:36 | 53.10436 | -25.39027 | 38000 ft | 442 kts | 270° |
| 2026-05-06 20:37 | 53.10399 | -25.49219 | 38000 ft | 442 kts | 269° |
| 2026-05-06 20:37 | 53.10352 | -25.59445 | 38000 ft | 442 kts | 269° |
| 2026-05-06 20:38 | 53.10297 | -25.69684 | 38000 ft | 442 kts | 269° |
| 2026-05-06 20:38 | 53.10233 | -25.79904 | 38000 ft | 442 kts | 269° |
| 2026-05-06 20:39 | 53.10160 | -25.90129 | 38000 ft | 442 kts | 269° |
| 2026-05-06 20:39 | 53.10079 | -26.00279 | 38000 ft | 442 kts | 269° |
| 2026-05-06 20:40 | 53.09988 | -26.10497 | 38000 ft | 442 kts | 269° |
| 2026-05-06 20:40 | 53.09889 | -26.20709 | 38000 ft | 442 kts | 269° |
| 2026-05-06 20:41 | 53.09782 | -26.30937 | 38000 ft | 442 kts | 269° |
| 2026-05-06 20:41 | 53.09665 | -26.41146 | 38000 ft | 442 kts | 269° |
| 2026-05-06 20:42 | 53.09540 | -26.51374 | 38000 ft | 442 kts | 269° |
| 2026-05-06 20:42 | 53.09405 | -26.61600 | 38000 ft | 442 kts | 269° |
| 2026-05-06 20:43 | 53.09263 | -26.71812 | 38000 ft | 442 kts | 269° |
| 2026-05-06 20:43 | 53.09111 | -26.82031 | 38000 ft | 442 kts | 268° |
| 2026-05-06 20:44 | 53.08952 | -26.92202 | 38000 ft | 442 kts | 268° |
| 2026-05-06 20:44 | 53.08783 | -27.02416 | 38000 ft | 442 kts | 268° |
| 2026-05-06 20:45 | 53.08605 | -27.12640 | 38000 ft | 442 kts | 268° |
| 2026-05-06 20:45 | 53.08418 | -27.22859 | 38000 ft | 442 kts | 268° |
| 2026-05-06 20:46 | 53.08223 | -27.33072 | 38000 ft | 442 kts | 268° |
| 2026-05-06 20:46 | 53.08020 | -27.43236 | 38000 ft | 442 kts | 268° |
| 2026-05-06 20:47 | 53.07807 | -27.53457 | 38000 ft | 442 kts | 268° |
| 2026-05-06 20:47 | 53.07586 | -27.63658 | 38000 ft | 442 kts | 268° |
| 2026-05-06 20:48 | 53.07355 | -27.73863 | 38000 ft | 442 kts | 268° |
| 2026-05-06 20:48 | 53.07118 | -27.84013 | 38000 ft | 442 kts | 268° |
| 2026-05-06 20:49 | 53.06870 | -27.94235 | 38000 ft | 442 kts | 268° |
| 2026-05-06 20:49 | 53.06614 | -28.04442 | 38000 ft | 442 kts | 268° |
| 2026-05-06 20:50 | 53.06348 | -28.14657 | 38000 ft | 442 kts | 267° |
| 2026-05-06 20:50 | 53.06075 | -28.24852 | 38000 ft | 442 kts | 267° |
| 2026-05-06 20:51 | 53.05794 | -28.34994 | 38000 ft | 442 kts | 267° |
| 2026-05-06 20:51 | 53.05502 | -28.45206 | 38000 ft | 442 kts | 267° |
| 2026-05-06 20:52 | 53.05253 | -28.53688 | 38000 ft | 442 kts | 267° |
| 2026-05-06 20:52 | 53.04946 | -28.63888 | 38000 ft | 442 kts | 267° |
| 2026-05-06 20:53 | 53.04630 | -28.74100 | 38000 ft | 442 kts | 267° |
| 2026-05-06 20:53 | 53.04305 | -28.84300 | 38000 ft | 442 kts | 267° |
| 2026-05-06 20:54 | 53.03974 | -28.94419 | 38000 ft | 442 kts | 267° |
| 2026-05-06 20:54 | 53.03632 | -29.04608 | 38000 ft | 442 kts | 266° |
| 2026-05-06 20:55 | 53.03281 | -29.14804 | 38000 ft | 442 kts | 266° |
| 2026-05-06 20:55 | 53.02922 | -29.24987 | 38000 ft | 442 kts | 266° |
| 2026-05-06 20:56 | 53.02553 | -29.35189 | 38000 ft | 442 kts | 266° |
| 2026-05-06 20:56 | 53.02177 | -29.45370 | 38000 ft | 442 kts | 266° |
| 2026-05-06 20:57 | 53.01793 | -29.55504 | 38000 ft | 442 kts | 266° |
| 2026-05-06 20:57 | 53.01399 | -29.65686 | 38000 ft | 442 kts | 266° |
| 2026-05-06 20:58 | 53.00996 | -29.75865 | 38000 ft | 442 kts | 266° |
| 2026-05-06 20:58 | 53.00584 | -29.86049 | 38000 ft | 442 kts | 266° |
| 2026-05-06 20:59 | 53.00166 | -29.96180 | 38000 ft | 442 kts | 266° |
| 2026-05-06 20:59 | 52.99879 | -30.06365 | 38000 ft | 442 kts | 269° |
| 2026-05-06 21:00 | 52.99807 | -30.16566 | 38000 ft | 442 kts | 269° |
| 2026-05-06 21:00 | 52.99754 | -30.26766 | 38000 ft | 442 kts | 269° |
| 2026-05-06 21:01 | 52.99668 | -30.36910 | 38000 ft | 442 kts | 269° |
| 2026-05-06 21:01 | 52.99557 | -30.47123 | 38000 ft | 442 kts | 269° |
| 2026-05-06 21:02 | 52.99433 | -30.57305 | 38000 ft | 442 kts | 269° |
| 2026-05-06 21:02 | 52.99301 | -30.67493 | 38000 ft | 442 kts | 269° |
| 2026-05-06 21:03 | 52.99160 | -30.77678 | 38000 ft | 442 kts | 269° |
| 2026-05-06 21:03 | 52.99012 | -30.87881 | 38000 ft | 442 kts | 268° |
| 2026-05-06 21:04 | 52.98855 | -30.98001 | 38000 ft | 442 kts | 268° |
| 2026-05-06 21:04 | 52.98690 | -31.08190 | 38000 ft | 442 kts | 268° |
| 2026-05-06 21:05 | 52.98515 | -31.18386 | 38000 ft | 442 kts | 268° |
| 2026-05-06 21:05 | 52.98331 | -31.28579 | 38000 ft | 442 kts | 268° |
| 2026-05-06 21:06 | 52.98139 | -31.38796 | 38000 ft | 442 kts | 268° |
| 2026-05-06 21:06 | 52.97939 | -31.48910 | 38000 ft | 442 kts | 268° |
| 2026-05-06 21:07 | 52.97730 | -31.59098 | 38000 ft | 442 kts | 268° |
| 2026-05-06 21:07 | 52.97512 | -31.69279 | 38000 ft | 442 kts | 268° |
| 2026-05-06 21:08 | 52.97284 | -31.79474 | 38000 ft | 442 kts | 268° |
| 2026-05-06 21:08 | 52.97049 | -31.89664 | 38000 ft | 442 kts | 268° |
| 2026-05-06 21:09 | 52.96804 | -31.99869 | 38000 ft | 442 kts | 268° |
| 2026-05-06 21:09 | 52.96552 | -32.09995 | 38000 ft | 442 kts | 268° |
| 2026-05-06 21:10 | 52.96290 | -32.20178 | 38000 ft | 442 kts | 267° |
| 2026-05-06 21:10 | 52.96020 | -32.30350 | 38000 ft | 442 kts | 267° |
| 2026-05-06 21:11 | 52.95741 | -32.40526 | 38000 ft | 442 kts | 267° |
| 2026-05-06 21:11 | 52.95453 | -32.50705 | 38000 ft | 442 kts | 267° |
| 2026-05-06 21:12 | 52.95158 | -32.60835 | 38000 ft | 442 kts | 267° |
| 2026-05-06 21:12 | 52.94853 | -32.70999 | 38000 ft | 442 kts | 267° |
| 2026-05-06 21:13 | 52.94539 | -32.81168 | 38000 ft | 442 kts | 267° |
| 2026-05-06 21:13 | 52.94217 | -32.91337 | 38000 ft | 442 kts | 267° |
| 2026-05-06 21:14 | 52.93886 | -33.01507 | 38000 ft | 442 kts | 267° |
| 2026-05-06 21:14 | 52.93545 | -33.11690 | 38000 ft | 442 kts | 266° |
| 2026-05-06 21:15 | 52.93199 | -33.21801 | 38000 ft | 442 kts | 266° |
| 2026-05-06 21:15 | 52.92841 | -33.31971 | 38000 ft | 442 kts | 266° |
| 2026-05-06 21:16 | 52.92475 | -33.42132 | 38000 ft | 442 kts | 266° |
| 2026-05-06 21:16 | 52.92100 | -33.52308 | 38000 ft | 442 kts | 266° |
| 2026-05-06 21:17 | 52.91719 | -33.62413 | 38000 ft | 442 kts | 266° |
| 2026-05-06 21:17 | 52.91328 | -33.72561 | 38000 ft | 442 kts | 266° |
| 2026-05-06 21:18 | 52.90927 | -33.82717 | 38000 ft | 442 kts | 266° |
| 2026-05-06 21:18 | 52.90518 | -33.92882 | 38000 ft | 442 kts | 266° |
| 2026-05-06 21:19 | 52.90100 | -34.03028 | 38000 ft | 442 kts | 266° |
| 2026-05-06 21:19 | 52.89673 | -34.13183 | 38000 ft | 442 kts | 266° |
| 2026-05-06 21:20 | 52.89238 | -34.23340 | 38000 ft | 442 kts | 266° |
| 2026-05-06 21:20 | 52.88797 | -34.33424 | 38000 ft | 442 kts | 266° |
| 2026-05-06 21:21 | 52.88345 | -34.43560 | 38000 ft | 442 kts | 265° |
| 2026-05-06 21:21 | 52.87884 | -34.53707 | 38000 ft | 442 kts | 265° |
| 2026-05-06 21:22 | 52.87415 | -34.63837 | 38000 ft | 442 kts | 265° |
| 2026-05-06 21:22 | 52.86935 | -34.73993 | 38000 ft | 442 kts | 265° |
| 2026-05-06 21:23 | 52.86451 | -34.84067 | 38000 ft | 442 kts | 265° |
| 2026-05-06 21:23 | 52.85956 | -34.94194 | 38000 ft | 442 kts | 265° |
| 2026-05-06 21:24 | 52.85451 | -35.04339 | 38000 ft | 442 kts | 265° |
| 2026-05-06 21:24 | 52.84938 | -35.14478 | 38000 ft | 442 kts | 265° |
| 2026-05-06 21:25 | 52.84417 | -35.24599 | 38000 ft | 442 kts | 265° |
| 2026-05-06 21:25 | 52.83887 | -35.34718 | 38000 ft | 442 kts | 265° |
| 2026-05-06 21:26 | 52.83351 | -35.44792 | 38000 ft | 442 kts | 265° |
| 2026-05-06 21:26 | 52.82805 | -35.54901 | 38000 ft | 442 kts | 265° |
| 2026-05-06 21:27 | 52.82249 | -35.65012 | 38000 ft | 442 kts | 265° |
| 2026-05-06 21:27 | 52.81685 | -35.75126 | 38000 ft | 442 kts | 264° |
| 2026-05-06 21:28 | 52.81112 | -35.85242 | 38000 ft | 442 kts | 264° |
| 2026-05-06 21:28 | 52.80533 | -35.95296 | 38000 ft | 442 kts | 264° |
| 2026-05-06 21:29 | 52.79942 | -36.05421 | 38000 ft | 442 kts | 264° |
| 2026-05-06 21:29 | 52.79344 | -36.15516 | 38000 ft | 442 kts | 264° |
| 2026-05-06 21:30 | 52.78736 | -36.25628 | 38000 ft | 442 kts | 264° |
| 2026-05-06 21:30 | 52.78121 | -36.35709 | 38000 ft | 442 kts | 264° |
| 2026-05-06 21:31 | 52.77499 | -36.45766 | 38000 ft | 442 kts | 264° |
| 2026-05-06 21:31 | 52.76867 | -36.55841 | 38000 ft | 442 kts | 264° |
| 2026-05-06 21:32 | 52.76226 | -36.65928 | 38000 ft | 442 kts | 264° |
| 2026-05-06 21:32 | 52.75247 | -36.81055 | 38000 ft | 442 kts | 264° |
| 2026-05-06 21:33 | 52.74583 | -36.91159 | 38000 ft | 442 kts | 264° |
| 2026-05-06 21:33 | 52.73911 | -37.01242 | 38000 ft | 442 kts | 264° |
| 2026-05-06 21:34 | 52.73235 | -37.11264 | 38000 ft | 442 kts | 263° |
| 2026-05-06 21:34 | 52.72547 | -37.21329 | 38000 ft | 442 kts | 263° |
| 2026-05-06 21:35 | 52.71850 | -37.31397 | 38000 ft | 442 kts | 263° |
| 2026-05-06 21:35 | 52.71145 | -37.41457 | 38000 ft | 442 kts | 263° |
| 2026-05-06 21:36 | 52.70552 | -37.49827 | 38000 ft | 442 kts | 263° |
| 2026-05-06 21:36 | 52.69708 | -37.61590 | 38000 ft | 442 kts | 263° |
| 2026-05-06 21:37 | 52.68979 | -37.71604 | 38000 ft | 442 kts | 263° |
| 2026-05-06 21:37 | 52.68239 | -37.81666 | 38000 ft | 442 kts | 263° |
| 2026-05-06 21:38 | 52.67618 | -37.90016 | 38000 ft | 442 kts | 263° |
| 2026-05-06 21:38 | 52.66863 | -38.00068 | 38000 ft | 442 kts | 263° |
| 2026-05-06 21:39 | 52.66103 | -38.10056 | 38000 ft | 442 kts | 263° |
| 2026-05-06 21:39 | 52.65332 | -38.20092 | 38000 ft | 442 kts | 263° |
| 2026-05-06 21:40 | 52.64551 | -38.30126 | 38000 ft | 442 kts | 263° |
| 2026-05-06 21:40 | 52.63762 | -38.40161 | 38000 ft | 442 kts | 263° |
| 2026-05-06 21:41 | 52.62965 | -38.50182 | 38000 ft | 442 kts | 262° |
| 2026-05-06 21:41 | 52.62158 | -38.60219 | 38000 ft | 442 kts | 262° |
| 2026-05-06 21:42 | 52.61344 | -38.70237 | 38000 ft | 442 kts | 262° |
| 2026-05-06 21:42 | 52.60526 | -38.80194 | 38000 ft | 442 kts | 262° |
| 2026-05-06 21:43 | 52.59695 | -38.90203 | 38000 ft | 442 kts | 262° |
| 2026-05-06 21:43 | 52.58854 | -39.00226 | 38000 ft | 442 kts | 262° |
| 2026-05-06 21:44 | 52.58006 | -39.10239 | 38000 ft | 442 kts | 262° |
| 2026-05-06 21:44 | 52.57154 | -39.20185 | 38000 ft | 442 kts | 262° |
| 2026-05-06 21:45 | 52.56289 | -39.30182 | 38000 ft | 442 kts | 262° |
| 2026-05-06 21:45 | 52.55416 | -39.40173 | 38000 ft | 442 kts | 262° |
| 2026-05-06 21:46 | 52.54534 | -39.50165 | 38000 ft | 442 kts | 262° |
| 2026-05-06 21:46 | 52.53644 | -39.60151 | 38000 ft | 442 kts | 262° |
| 2026-05-06 21:47 | 52.52745 | -39.70135 | 38000 ft | 442 kts | 262° |
| 2026-05-06 21:47 | 52.51844 | -39.80048 | 38000 ft | 442 kts | 261° |
| 2026-05-06 21:48 | 52.50930 | -39.90016 | 38000 ft | 442 kts | 261° |
| 2026-05-06 21:48 | 52.49881 | -39.99957 | 38000 ft | 441 kts | 255° |
| 2026-05-06 21:49 | 52.48146 | -40.09622 | 38000 ft | 441 kts | 252° |
| 2026-05-06 21:49 | 52.46263 | -40.19206 | 38000 ft | 442 kts | 252° |
| 2026-05-06 21:50 | 52.44343 | -40.28779 | 38000 ft | 442 kts | 252° |
| 2026-05-06 21:50 | 52.42426 | -40.38347 | 38000 ft | 442 kts | 252° |
| 2026-05-06 21:51 | 52.40509 | -40.47918 | 38000 ft | 442 kts | 252° |
| 2026-05-06 21:51 | 52.38602 | -40.57411 | 38000 ft | 442 kts | 252° |
| 2026-05-06 21:52 | 52.36674 | -40.66957 | 38000 ft | 442 kts | 252° |
| 2026-05-06 21:52 | 52.34739 | -40.76490 | 38000 ft | 442 kts | 251° |
| 2026-05-06 21:53 | 52.32794 | -40.86025 | 38000 ft | 442 kts | 251° |
| 2026-05-06 21:53 | 52.30843 | -40.95543 | 38000 ft | 442 kts | 251° |
| 2026-05-06 21:54 | 52.28882 | -41.05070 | 38000 ft | 442 kts | 251° |
| 2026-05-06 21:54 | 52.26913 | -41.14583 | 38000 ft | 442 kts | 251° |
| 2026-05-06 21:55 | 52.24939 | -41.24078 | 38000 ft | 442 kts | 251° |
| 2026-05-06 21:55 | 52.22971 | -41.33497 | 38000 ft | 442 kts | 251° |
| 2026-05-06 21:56 | 52.20980 | -41.42983 | 38000 ft | 442 kts | 251° |
| 2026-05-06 21:56 | 52.18981 | -41.52466 | 38000 ft | 442 kts | 251° |
| 2026-05-06 21:57 | 52.16977 | -41.61922 | 38000 ft | 442 kts | 251° |
| 2026-05-06 21:57 | 52.14963 | -41.71382 | 38000 ft | 442 kts | 251° |
| 2026-05-06 21:58 | 52.12942 | -41.80836 | 38000 ft | 442 kts | 251° |
| 2026-05-06 21:58 | 52.10916 | -41.90266 | 38000 ft | 442 kts | 251° |
| 2026-05-06 21:59 | 52.08893 | -41.99639 | 38000 ft | 442 kts | 251° |
| 2026-05-06 21:59 | 52.06848 | -42.09069 | 38000 ft | 442 kts | 250° |
| 2026-05-06 22:00 | 52.04794 | -42.18498 | 38000 ft | 442 kts | 250° |
| 2026-05-06 22:00 | 52.02738 | -42.27896 | 38000 ft | 442 kts | 250° |
| 2026-05-06 22:01 | 52.00672 | -42.37292 | 38000 ft | 442 kts | 250° |
| 2026-05-06 22:01 | 51.98599 | -42.46681 | 38000 ft | 442 kts | 250° |
| 2026-05-06 22:02 | 51.96532 | -42.56000 | 38000 ft | 442 kts | 250° |
| 2026-05-06 22:02 | 51.94445 | -42.65365 | 38000 ft | 442 kts | 250° |
| 2026-05-06 22:03 | 51.92348 | -42.74734 | 38000 ft | 442 kts | 250° |
| 2026-05-06 22:03 | 51.90244 | -42.84093 | 38000 ft | 442 kts | 250° |
| 2026-05-06 22:04 | 51.88135 | -42.93431 | 38000 ft | 442 kts | 250° |
| 2026-05-06 22:04 | 51.86030 | -43.02712 | 38000 ft | 442 kts | 250° |
| 2026-05-06 22:05 | 51.83905 | -43.12042 | 38000 ft | 442 kts | 250° |
| 2026-05-06 22:05 | 51.81769 | -43.21373 | 38000 ft | 442 kts | 250° |
| 2026-05-06 22:06 | 51.79643 | -43.30625 | 38000 ft | 442 kts | 250° |
| 2026-05-06 22:06 | 51.77495 | -43.39932 | 38000 ft | 442 kts | 250° |
| 2026-05-06 22:07 | 51.75342 | -43.49216 | 38000 ft | 442 kts | 249° |
| 2026-05-06 22:07 | 51.73178 | -43.58511 | 38000 ft | 442 kts | 249° |
| 2026-05-06 22:08 | 51.71009 | -43.67784 | 38000 ft | 442 kts | 249° |
| 2026-05-06 22:08 | 51.68848 | -43.76982 | 38000 ft | 442 kts | 249° |
| 2026-05-06 22:09 | 51.66663 | -43.86247 | 38000 ft | 442 kts | 249° |
| 2026-05-06 22:09 | 51.64469 | -43.95507 | 38000 ft | 442 kts | 249° |
| 2026-05-06 22:10 | 51.62271 | -44.04743 | 38000 ft | 442 kts | 249° |
| 2026-05-06 22:10 | 51.60065 | -44.13976 | 38000 ft | 442 kts | 249° |
| 2026-05-06 22:11 | 51.57867 | -44.23137 | 38000 ft | 442 kts | 249° |
| 2026-05-06 22:11 | 51.55646 | -44.32354 | 38000 ft | 442 kts | 249° |
| 2026-05-06 22:12 | 51.53418 | -44.41560 | 38000 ft | 442 kts | 249° |
| 2026-05-06 22:12 | 51.51184 | -44.50753 | 38000 ft | 442 kts | 249° |
| 2026-05-06 22:13 | 51.48956 | -44.59883 | 38000 ft | 442 kts | 249° |
| 2026-05-06 22:13 | 51.46712 | -44.69044 | 38000 ft | 442 kts | 249° |
| 2026-05-06 22:14 | 51.44454 | -44.78217 | 38000 ft | 442 kts | 248° |
| 2026-05-06 22:14 | 51.42190 | -44.87383 | 38000 ft | 442 kts | 248° |
| 2026-05-06 22:15 | 51.39921 | -44.96526 | 38000 ft | 442 kts | 248° |
| 2026-05-06 22:15 | 51.37643 | -45.05670 | 38000 ft | 442 kts | 248° |
| 2026-05-06 22:16 | 51.35360 | -45.14798 | 38000 ft | 442 kts | 248° |
| 2026-05-06 22:16 | 51.33085 | -45.23854 | 38000 ft | 442 kts | 248° |
| 2026-05-06 22:17 | 51.30787 | -45.32966 | 38000 ft | 442 kts | 248° |
| 2026-05-06 22:17 | 51.28482 | -45.42067 | 38000 ft | 442 kts | 248° |
| 2026-05-06 22:18 | 51.26165 | -45.51180 | 38000 ft | 442 kts | 248° |
| 2026-05-06 22:18 | 51.23845 | -45.60267 | 38000 ft | 442 kts | 248° |
| 2026-05-06 22:19 | 51.21535 | -45.69280 | 38000 ft | 442 kts | 248° |
| 2026-05-06 22:19 | 51.19202 | -45.78344 | 38000 ft | 442 kts | 248° |
| 2026-05-06 22:20 | 51.16863 | -45.87394 | 38000 ft | 442 kts | 248° |
| 2026-05-06 22:20 | 51.14515 | -45.96444 | 38000 ft | 442 kts | 248° |
| 2026-05-06 22:21 | 51.12161 | -46.05484 | 38000 ft | 442 kts | 248° |
| 2026-05-06 22:21 | 51.09799 | -46.14516 | 38000 ft | 442 kts | 247° |
| 2026-05-06 22:22 | 51.07441 | -46.23496 | 38000 ft | 442 kts | 247° |
| 2026-05-06 22:22 | 51.05065 | -46.32512 | 38000 ft | 442 kts | 247° |
| 2026-05-06 22:23 | 51.02695 | -46.41469 | 38000 ft | 442 kts | 247° |
| 2026-05-06 22:23 | 51.00307 | -46.50456 | 38000 ft | 442 kts | 247° |
| 2026-05-06 22:24 | 50.97908 | -46.59453 | 38000 ft | 442 kts | 247° |
| 2026-05-06 22:24 | 50.95516 | -46.68387 | 38000 ft | 442 kts | 247° |
| 2026-05-06 22:25 | 50.93103 | -46.77363 | 38000 ft | 442 kts | 247° |
| 2026-05-06 22:25 | 50.90687 | -46.86318 | 38000 ft | 442 kts | 247° |
| 2026-05-06 22:26 | 50.88671 | -46.93763 | 38000 ft | 442 kts | 247° |
| 2026-05-06 22:26 | 50.86242 | -47.02701 | 38000 ft | 442 kts | 247° |
| 2026-05-06 22:27 | 50.83806 | -47.11633 | 38000 ft | 442 kts | 246° |
| 2026-05-06 22:27 | 50.81378 | -47.20501 | 38000 ft | 442 kts | 246° |
| 2026-05-06 22:28 | 50.78925 | -47.29422 | 38000 ft | 442 kts | 246° |
| 2026-05-06 22:28 | 50.76469 | -47.38323 | 38000 ft | 442 kts | 246° |
| 2026-05-06 22:29 | 50.74005 | -47.47221 | 38000 ft | 442 kts | 246° |
| 2026-05-06 22:29 | 50.71552 | -47.56042 | 38000 ft | 442 kts | 246° |
| 2026-05-06 22:30 | 50.69077 | -47.64910 | 38000 ft | 442 kts | 246° |
| 2026-05-06 22:30 | 50.66587 | -47.73801 | 38000 ft | 442 kts | 246° |
| 2026-05-06 22:31 | 50.64096 | -47.82658 | 38000 ft | 442 kts | 246° |
| 2026-05-06 22:31 | 50.61601 | -47.91500 | 38000 ft | 442 kts | 246° |
| 2026-05-06 22:32 | 50.59111 | -48.00286 | 38000 ft | 442 kts | 246° |
| 2026-05-06 22:32 | 50.56602 | -48.09111 | 38000 ft | 442 kts | 246° |
| 2026-05-06 22:33 | 50.54086 | -48.17926 | 38000 ft | 442 kts | 246° |
| 2026-05-06 22:33 | 50.51560 | -48.26744 | 38000 ft | 442 kts | 246° |
| 2026-05-06 22:34 | 50.49032 | -48.35537 | 38000 ft | 442 kts | 246° |
| 2026-05-06 22:34 | 50.46509 | -48.44279 | 38000 ft | 442 kts | 245° |
| 2026-05-06 22:35 | 50.43968 | -48.53051 | 38000 ft | 442 kts | 245° |
| 2026-05-06 22:35 | 50.41415 | -48.61833 | 38000 ft | 442 kts | 245° |
| 2026-05-06 22:36 | 50.38858 | -48.70596 | 38000 ft | 442 kts | 245° |
| 2026-05-06 22:36 | 50.36289 | -48.79368 | 38000 ft | 442 kts | 245° |
| 2026-05-06 22:37 | 50.33740 | -48.88041 | 38000 ft | 442 kts | 245° |
| 2026-05-06 22:37 | 50.31163 | -48.96775 | 38000 ft | 442 kts | 245° |
| 2026-05-06 22:38 | 50.28583 | -49.05490 | 38000 ft | 442 kts | 245° |
| 2026-05-06 22:38 | 50.25990 | -49.14217 | 38000 ft | 442 kts | 245° |
| 2026-05-06 22:39 | 50.23395 | -49.22922 | 38000 ft | 442 kts | 245° |
| 2026-05-06 22:39 | 50.20805 | -49.31574 | 38000 ft | 442 kts | 245° |
| 2026-05-06 22:40 | 50.18194 | -49.40269 | 38000 ft | 442 kts | 245° |
| 2026-05-06 22:40 | 50.15577 | -49.48953 | 38000 ft | 442 kts | 245° |
| 2026-05-06 22:41 | 50.11657 | -49.61899 | 38000 ft | 442 kts | 245° |
| 2026-05-06 22:42 | 50.09021 | -49.70566 | 38000 ft | 442 kts | 245° |
| 2026-05-06 22:42 | 50.06382 | -49.79214 | 38000 ft | 442 kts | 244° |
| 2026-05-06 22:43 | 50.03740 | -49.87843 | 38000 ft | 442 kts | 244° |
| 2026-05-06 22:43 | 50.01105 | -49.96416 | 38000 ft | 442 kts | 244° |
| 2026-05-06 22:44 | 49.98749 | -50.05248 | 38000 ft | 441 kts | 249° |
| 2026-05-06 22:44 | 49.96578 | -50.14177 | 38000 ft | 442 kts | 250° |
| 2026-05-06 22:45 | 49.94447 | -50.23075 | 38000 ft | 442 kts | 250° |
| 2026-05-06 22:45 | 49.92296 | -50.32011 | 38000 ft | 442 kts | 249° |
| 2026-05-06 22:46 | 49.90134 | -50.40926 | 38000 ft | 442 kts | 249° |
| 2026-05-06 22:46 | 49.87956 | -50.49853 | 38000 ft | 442 kts | 249° |
| 2026-05-06 22:47 | 49.85775 | -50.58757 | 38000 ft | 442 kts | 249° |
| 2026-05-06 22:47 | 49.83587 | -50.67656 | 38000 ft | 442 kts | 249° |
| 2026-05-06 22:48 | 49.81393 | -50.76543 | 38000 ft | 442 kts | 249° |
| 2026-05-06 22:48 | 49.79205 | -50.85374 | 38000 ft | 442 kts | 249° |
| 2026-05-06 22:49 | 49.76995 | -50.94256 | 38000 ft | 442 kts | 249° |
| 2026-05-06 22:49 | 49.74778 | -51.03130 | 38000 ft | 442 kts | 249° |
| 2026-05-06 22:50 | 49.72556 | -51.11990 | 38000 ft | 442 kts | 249° |
| 2026-05-06 22:50 | 49.70339 | -51.20791 | 38000 ft | 442 kts | 249° |
| 2026-05-06 22:51 | 49.68103 | -51.29636 | 38000 ft | 442 kts | 249° |
| 2026-05-06 22:51 | 49.65861 | -51.38472 | 38000 ft | 442 kts | 249° |
| 2026-05-06 22:52 | 49.63612 | -51.47298 | 38000 ft | 442 kts | 249° |
| 2026-05-06 22:52 | 49.61356 | -51.56119 | 38000 ft | 442 kts | 248° |
| 2026-05-06 22:53 | 49.59109 | -51.64872 | 38000 ft | 442 kts | 248° |
| 2026-05-06 22:53 | 49.56839 | -51.73676 | 38000 ft | 442 kts | 248° |
| 2026-05-06 22:54 | 49.54566 | -51.82462 | 38000 ft | 442 kts | 248° |
| 2026-05-06 22:54 | 49.52297 | -51.91198 | 38000 ft | 442 kts | 248° |
| 2026-05-06 22:55 | 49.50007 | -51.99996 | 38000 ft | 442 kts | 249° |
| 2026-05-06 22:55 | 49.47796 | -52.08812 | 38000 ft | 442 kts | 249° |
| 2026-05-06 22:56 | 49.45622 | -52.17650 | 38000 ft | 442 kts | 249° |
| 2026-05-06 22:56 | 49.43440 | -52.26473 | 38000 ft | 442 kts | 249° |
| 2026-05-06 22:57 | 49.41243 | -52.35291 | 38000 ft | 442 kts | 249° |
| 2026-05-06 22:57 | 49.39051 | -52.44034 | 38000 ft | 442 kts | 249° |
| 2026-05-06 22:58 | 49.36833 | -52.52844 | 38000 ft | 442 kts | 249° |
| 2026-05-06 22:58 | 49.34610 | -52.61641 | 38000 ft | 442 kts | 249° |
| 2026-05-06 22:59 | 49.32383 | -52.70421 | 38000 ft | 442 kts | 249° |
| 2026-05-06 22:59 | 49.30164 | -52.79136 | 38000 ft | 442 kts | 249° |
| 2026-05-06 23:00 | 49.27918 | -52.87925 | 38000 ft | 442 kts | 249° |
| 2026-05-06 23:00 | 49.25672 | -52.96680 | 38000 ft | 442 kts | 249° |
| 2026-05-06 23:01 | 49.23415 | -53.05440 | 38000 ft | 442 kts | 249° |
| 2026-05-06 23:01 | 49.21170 | -53.14122 | 38000 ft | 442 kts | 248° |
| 2026-05-06 23:02 | 49.18903 | -53.22856 | 38000 ft | 442 kts | 248° |
| 2026-05-06 23:02 | 49.16631 | -53.31578 | 38000 ft | 442 kts | 248° |
| 2026-05-06 23:03 | 49.14350 | -53.40298 | 38000 ft | 442 kts | 248° |
| 2026-05-06 23:03 | 49.12064 | -53.49004 | 38000 ft | 442 kts | 248° |
| 2026-05-06 23:04 | 49.09769 | -53.57714 | 38000 ft | 442 kts | 248° |
| 2026-05-06 23:04 | 49.07470 | -53.66404 | 38000 ft | 442 kts | 248° |
| 2026-05-06 23:05 | 49.05165 | -53.75087 | 38000 ft | 442 kts | 248° |
| 2026-05-06 23:05 | 49.02852 | -53.83764 | 38000 ft | 442 kts | 248° |
| 2026-05-06 23:06 | 49.00543 | -53.92393 | 38000 ft | 442 kts | 248° |
| 2026-05-06 23:06 | 48.98218 | -54.01055 | 38000 ft | 442 kts | 248° |
| 2026-05-06 23:07 | 48.95884 | -54.09714 | 38000 ft | 442 kts | 248° |
| 2026-05-06 23:07 | 48.93539 | -54.18381 | 38000 ft | 442 kts | 248° |
| 2026-05-06 23:08 | 48.91191 | -54.27029 | 38000 ft | 442 kts | 248° |
| 2026-05-06 23:08 | 48.88851 | -54.35618 | 38000 ft | 442 kts | 248° |
| 2026-05-06 23:09 | 48.86493 | -54.44239 | 38000 ft | 442 kts | 248° |
| 2026-05-06 23:09 | 48.84124 | -54.52866 | 37999 ft | 442 kts | 247° |
| 2026-05-06 23:10 | 48.81746 | -54.61497 | 38000 ft | 443 kts | 247° |
| 2026-05-06 23:10 | 48.79365 | -54.70106 | 38000 ft | 443 kts | 247° |
| 2026-05-06 23:11 | 48.76987 | -54.78676 | 38000 ft | 443 kts | 247° |
| 2026-05-06 23:11 | 48.74588 | -54.87286 | 38000 ft | 443 kts | 247° |
| 2026-05-06 23:12 | 48.72186 | -54.95879 | 38001 ft | 443 kts | 247° |
| 2026-05-06 23:12 | 48.69780 | -55.04453 | 38000 ft | 442 kts | 247° |
| 2026-05-06 23:13 | 48.67364 | -55.13033 | 38000 ft | 443 kts | 247° |
| 2026-05-06 23:13 | 48.65352 | -55.20157 | 38000 ft | 443 kts | 247° |
| 2026-05-06 23:14 | 48.62926 | -55.28713 | 38000 ft | 442 kts | 247° |
| 2026-05-06 23:14 | 48.60495 | -55.37261 | 38000 ft | 442 kts | 247° |
| 2026-05-06 23:15 | 48.58057 | -55.45801 | 38000 ft | 442 kts | 246° |
| 2026-05-06 23:15 | 48.55613 | -55.54332 | 38000 ft | 443 kts | 246° |
| 2026-05-06 23:16 | 48.53177 | -55.62807 | 38000 ft | 443 kts | 246° |
| 2026-05-06 23:16 | 48.50713 | -55.71345 | 38000 ft | 443 kts | 246° |
| 2026-05-06 23:17 | 48.48250 | -55.79851 | 38000 ft | 443 kts | 246° |
| 2026-05-06 23:17 | 48.45775 | -55.88369 | 38000 ft | 443 kts | 246° |
| 2026-05-06 23:18 | 48.43293 | -55.96882 | 38000 ft | 443 kts | 246° |
| 2026-05-06 23:18 | 48.40806 | -56.05382 | 38000 ft | 443 kts | 246° |
| 2026-05-06 23:19 | 48.38315 | -56.13867 | 38000 ft | 443 kts | 246° |
| 2026-05-06 23:19 | 48.35814 | -56.22353 | 38000 ft | 443 kts | 246° |
| 2026-05-06 23:20 | 48.33324 | -56.30777 | 38000 ft | 443 kts | 246° |
| 2026-05-06 23:20 | 48.30814 | -56.39236 | 38000 ft | 443 kts | 246° |
| 2026-05-06 23:21 | 48.28291 | -56.47709 | 38000 ft | 443 kts | 246° |
| 2026-05-06 23:21 | 48.25766 | -56.56163 | 38000 ft | 443 kts | 246° |
| 2026-05-06 23:22 | 48.23237 | -56.64598 | 38000 ft | 443 kts | 246° |
| 2026-05-06 23:22 | 48.20702 | -56.73026 | 38000 ft | 443 kts | 246° |
| 2026-05-06 23:23 | 48.18160 | -56.81448 | 38000 ft | 443 kts | 246° |
| 2026-05-06 23:23 | 48.15626 | -56.89814 | 38000 ft | 444 kts | 245° |
| 2026-05-06 23:24 | 48.13070 | -56.98226 | 38000 ft | 444 kts | 245° |
| 2026-05-06 23:24 | 48.10508 | -57.06628 | 38000 ft | 444 kts | 245° |
| 2026-05-06 23:25 | 48.07936 | -57.15035 | 38000 ft | 444 kts | 245° |
| 2026-05-06 23:25 | 48.05361 | -57.23423 | 38000 ft | 444 kts | 245° |
| 2026-05-06 23:26 | 48.02775 | -57.31816 | 38000 ft | 444 kts | 245° |
| 2026-05-06 23:26 | 48.00187 | -57.40192 | 38000 ft | 444 kts | 245° |
| 2026-05-06 23:27 | 47.97610 | -57.48502 | 38000 ft | 444 kts | 245° |
| 2026-05-06 23:27 | 47.95006 | -57.56870 | 38000 ft | 444 kts | 245° |
| 2026-05-06 23:28 | 47.92399 | -57.65224 | 38000 ft | 444 kts | 245° |
| 2026-05-06 23:28 | 47.89786 | -57.73565 | 38000 ft | 443 kts | 245° |
| 2026-05-06 23:29 | 47.87166 | -57.81901 | 38000 ft | 444 kts | 245° |
| 2026-05-06 23:29 | 47.84541 | -57.90226 | 38000 ft | 444 kts | 245° |
| 2026-05-06 23:30 | 47.81928 | -57.98486 | 38000 ft | 444 kts | 245° |
| 2026-05-06 23:30 | 47.79292 | -58.06794 | 38000 ft | 443 kts | 245° |
| 2026-05-06 23:31 | 47.76652 | -58.15083 | 38000 ft | 443 kts | 245° |
| 2026-05-06 23:31 | 47.74005 | -58.23370 | 38000 ft | 443 kts | 245° |
| 2026-05-06 23:32 | 47.71357 | -58.31630 | 38000 ft | 443 kts | 244° |
| 2026-05-06 23:32 | 47.68725 | -58.39817 | 38000 ft | 442 kts | 244° |
| 2026-05-06 23:33 | 47.66064 | -58.48066 | 38000 ft | 442 kts | 244° |
| 2026-05-06 23:33 | 47.63401 | -58.56295 | 38000 ft | 442 kts | 244° |
| 2026-05-06 23:34 | 47.60733 | -58.64512 | 38000 ft | 442 kts | 244° |
| 2026-05-06 23:34 | 47.58078 | -58.72663 | 38000 ft | 442 kts | 244° |
| 2026-05-06 23:35 | 47.55397 | -58.80868 | 38000 ft | 442 kts | 244° |
| 2026-05-06 23:35 | 47.52712 | -58.89059 | 38000 ft | 442 kts | 244° |
| 2026-05-06 23:36 | 47.50040 | -58.97183 | 38000 ft | 442 kts | 244° |
| 2026-05-06 23:36 | 47.47346 | -59.05348 | 38000 ft | 442 kts | 244° |
| 2026-05-06 23:37 | 47.44640 | -59.13527 | 38000 ft | 442 kts | 244° |
| 2026-05-06 23:37 | 47.41932 | -59.21684 | 38000 ft | 442 kts | 244° |
| 2026-05-06 23:38 | 47.39223 | -59.29817 | 38000 ft | 442 kts | 244° |
| 2026-05-06 23:38 | 47.36521 | -59.37904 | 38000 ft | 442 kts | 244° |
| 2026-05-06 23:39 | 47.33795 | -59.46036 | 38000 ft | 442 kts | 244° |
| 2026-05-06 23:39 | 47.31065 | -59.54158 | 38000 ft | 442 kts | 244° |
| 2026-05-06 23:40 | 47.28331 | -59.62265 | 38000 ft | 442 kts | 244° |
| 2026-05-06 23:40 | 47.25607 | -59.70316 | 38000 ft | 442 kts | 243° |
| 2026-05-06 23:41 | 47.22862 | -59.78403 | 38000 ft | 442 kts | 243° |
| 2026-05-06 23:41 | 47.20109 | -59.86492 | 38000 ft | 442 kts | 243° |
| 2026-05-06 23:42 | 47.17349 | -59.94574 | 38000 ft | 442 kts | 243° |
| 2026-05-06 23:42 | 47.14583 | -60.02649 | 38000 ft | 442 kts | 243° |
| 2026-05-06 23:43 | 47.11829 | -60.10664 | 38000 ft | 442 kts | 243° |
| 2026-05-06 23:43 | 47.09057 | -60.18707 | 38000 ft | 442 kts | 243° |
| 2026-05-06 23:44 | 47.06276 | -60.26752 | 38000 ft | 442 kts | 243° |
| 2026-05-06 23:44 | 47.03491 | -60.34783 | 38000 ft | 442 kts | 243° |
| 2026-05-06 23:45 | 47.00700 | -60.42806 | 37999 ft | 442 kts | 243° |
| 2026-05-06 23:45 | 46.97911 | -60.50802 | 38000 ft | 443 kts | 243° |
| 2026-05-06 23:46 | 46.95103 | -60.58826 | 38000 ft | 443 kts | 243° |
| 2026-05-06 23:46 | 46.92275 | -60.66882 | 38000 ft | 444 kts | 243° |
| 2026-05-06 23:47 | 46.89452 | -60.74899 | 38000 ft | 443 kts | 243° |
| 2026-05-06 23:47 | 46.86629 | -60.82893 | 38000 ft | 442 kts | 243° |
| 2026-05-06 23:48 | 46.83822 | -60.90817 | 38000 ft | 442 kts | 243° |
| 2026-05-06 23:48 | 46.80989 | -60.98792 | 38000 ft | 442 kts | 243° |
| 2026-05-06 23:49 | 46.78156 | -61.06742 | 38000 ft | 442 kts | 243° |
| 2026-05-06 23:49 | 46.75313 | -61.14694 | 38000 ft | 442 kts | 242° |
| 2026-05-06 23:50 | 46.72468 | -61.22630 | 38000 ft | 442 kts | 242° |
| 2026-05-06 23:50 | 46.68199 | -61.34493 | 38000 ft | 442 kts | 242° |
| 2026-05-06 23:51 | 46.65339 | -61.42413 | 38000 ft | 442 kts | 242° |
| 2026-05-06 23:51 | 46.62467 | -61.50342 | 38000 ft | 442 kts | 242° |
| 2026-05-06 23:52 | 46.59609 | -61.58208 | 38000 ft | 442 kts | 242° |
| 2026-05-06 23:52 | 46.56735 | -61.66096 | 38000 ft | 442 kts | 242° |
| 2026-05-06 23:53 | 46.53851 | -61.73988 | 38000 ft | 442 kts | 242° |
| 2026-05-06 23:53 | 46.50959 | -61.81876 | 38000 ft | 442 kts | 242° |
| 2026-05-06 23:54 | 46.48066 | -61.89745 | 38000 ft | 442 kts | 242° |
| 2026-05-06 23:54 | 46.45168 | -61.97608 | 38000 ft | 442 kts | 242° |
| 2026-05-06 23:55 | 46.42265 | -62.05456 | 38000 ft | 442 kts | 242° |
| 2026-05-06 23:55 | 46.39355 | -62.13303 | 38000 ft | 442 kts | 242° |
| 2026-05-06 23:56 | 46.36438 | -62.21147 | 38000 ft | 442 kts | 242° |
| 2026-05-06 23:56 | 46.33518 | -62.28975 | 38000 ft | 442 kts | 242° |
| 2026-05-06 23:57 | 46.30609 | -62.36750 | 38000 ft | 442 kts | 242° |
| 2026-05-06 23:57 | 46.27676 | -62.44568 | 38000 ft | 442 kts | 242° |
| 2026-05-06 23:58 | 46.24738 | -62.52377 | 38000 ft | 442 kts | 242° |
| 2026-05-06 23:58 | 46.21791 | -62.60187 | 38000 ft | 442 kts | 241° |
| 2026-05-06 23:59 | 46.19344 | -62.66656 | 38000 ft | 442 kts | 241° |
| 2026-05-06 23:59 | 46.16394 | -62.74432 | 38000 ft | 442 kts | 241° |
| 2026-05-07 00:00 | 46.12953 | -62.83476 | 38000 ft | 442 kts | 241° |
| 2026-05-07 00:00 | 46.10486 | -62.89940 | 38000 ft | 442 kts | 241° |
| 2026-05-07 00:01 | 46.07520 | -62.97695 | 38000 ft | 442 kts | 241° |
| 2026-05-07 00:01 | 46.04543 | -63.05453 | 38000 ft | 442 kts | 241° |
| 2026-05-07 00:02 | 46.01567 | -63.13187 | 38000 ft | 442 kts | 241° |
| 2026-05-07 00:02 | 45.98583 | -63.20921 | 38000 ft | 442 kts | 241° |
| 2026-05-07 00:03 | 45.95595 | -63.28644 | 38000 ft | 442 kts | 241° |
| 2026-05-07 00:03 | 45.92605 | -63.36349 | 38000 ft | 442 kts | 241° |
| 2026-05-07 00:04 | 45.89626 | -63.44006 | 38000 ft | 442 kts | 241° |
| 2026-05-07 00:04 | 45.86625 | -63.51697 | 38000 ft | 442 kts | 241° |
| 2026-05-07 00:05 | 45.83613 | -63.59392 | 38000 ft | 442 kts | 240° |
| 2026-05-07 00:05 | 45.80600 | -63.67073 | 38000 ft | 442 kts | 240° |
| 2026-05-07 00:06 | 45.77578 | -63.74751 | 38000 ft | 442 kts | 240° |
| 2026-05-07 00:06 | 45.74553 | -63.82420 | 38000 ft | 442 kts | 240° |
| 2026-05-07 00:07 | 45.71543 | -63.90028 | 38000 ft | 442 kts | 240° |
| 2026-05-07 00:07 | 45.68511 | -63.97671 | 38000 ft | 442 kts | 240° |
| 2026-05-07 00:08 | 45.65465 | -64.05329 | 38000 ft | 442 kts | 240° |
| 2026-05-07 00:08 | 45.62414 | -64.12976 | 38000 ft | 442 kts | 240° |
| 2026-05-07 00:09 | 45.59375 | -64.20575 | 38000 ft | 442 kts | 240° |
| 2026-05-07 00:09 | 45.56316 | -64.28198 | 38000 ft | 442 kts | 240° |
| 2026-05-07 00:10 | 45.53258 | -64.35802 | 38000 ft | 442 kts | 240° |
| 2026-05-07 00:10 | 45.50192 | -64.43402 | 38000 ft | 442 kts | 240° |
| 2026-05-07 00:11 | 45.47112 | -64.51018 | 38000 ft | 442 kts | 240° |
| 2026-05-07 00:11 | 45.44052 | -64.58561 | 38000 ft | 442 kts | 240° |
| 2026-05-07 00:12 | 45.40966 | -64.66149 | 38000 ft | 443 kts | 240° |
| 2026-05-07 00:12 | 45.37876 | -64.73726 | 38000 ft | 443 kts | 240° |
| 2026-05-07 00:13 | 45.34777 | -64.81304 | 38000 ft | 442 kts | 240° |
| 2026-05-07 00:13 | 45.31698 | -64.88813 | 38000 ft | 442 kts | 240° |
| 2026-05-07 00:14 | 45.28596 | -64.96358 | 38000 ft | 442 kts | 240° |
| 2026-05-07 00:14 | 45.25492 | -65.03884 | 38000 ft | 442 kts | 240° |
| 2026-05-07 00:15 | 45.22375 | -65.11425 | 38000 ft | 442 kts | 239° |
| 2026-05-07 00:15 | 45.19258 | -65.18945 | 38000 ft | 442 kts | 239° |
| 2026-05-07 00:16 | 45.16156 | -65.26410 | 38000 ft | 442 kts | 239° |
| 2026-05-07 00:16 | 45.13035 | -65.33901 | 38000 ft | 442 kts | 239° |
| 2026-05-07 00:17 | 45.09903 | -65.41398 | 38000 ft | 442 kts | 239° |
| 2026-05-07 00:17 | 45.06770 | -65.48877 | 38000 ft | 442 kts | 239° |
| 2026-05-07 00:18 | 45.03626 | -65.56363 | 38000 ft | 442 kts | 239° |
| 2026-05-07 00:18 | 45.00483 | -65.63827 | 38000 ft | 442 kts | 239° |
| 2026-05-07 00:19 | 44.97355 | -65.71236 | 38000 ft | 442 kts | 239° |
| 2026-05-07 00:19 | 44.94203 | -65.78682 | 38000 ft | 442 kts | 239° |
| 2026-05-07 00:20 | 44.91043 | -65.86127 | 38000 ft | 442 kts | 239° |
| 2026-05-07 00:20 | 44.87876 | -65.93568 | 38000 ft | 442 kts | 239° |
| 2026-05-07 00:21 | 44.84710 | -66.00989 | 38000 ft | 442 kts | 239° |
| 2026-05-07 00:21 | 44.81532 | -66.08417 | 38000 ft | 442 kts | 239° |
| 2026-05-07 00:22 | 44.78378 | -66.15770 | 38000 ft | 442 kts | 239° |
| 2026-05-07 00:22 | 44.75197 | -66.23169 | 38000 ft | 442 kts | 239° |
| 2026-05-07 00:23 | 44.72008 | -66.30564 | 38000 ft | 442 kts | 239° |
| 2026-05-07 00:23 | 44.68809 | -66.37965 | 38000 ft | 442 kts | 239° |
| 2026-05-07 00:24 | 44.65612 | -66.45342 | 38000 ft | 442 kts | 239° |
| 2026-05-07 00:24 | 44.62429 | -66.52669 | 38000 ft | 442 kts | 239° |
| 2026-05-07 00:25 | 44.59223 | -66.60028 | 38000 ft | 442 kts | 238° |
| 2026-05-07 00:25 | 44.56014 | -66.67376 | 38000 ft | 442 kts | 238° |
| 2026-05-07 00:26 | 44.52792 | -66.74736 | 38000 ft | 442 kts | 238° |
| 2026-05-07 00:26 | 44.49571 | -66.82075 | 38000 ft | 442 kts | 238° |
| 2026-05-07 00:27 | 44.46349 | -66.89398 | 38000 ft | 442 kts | 238° |
| 2026-05-07 00:27 | 44.43149 | -66.96676 | 37999 ft | 442 kts | 240° |
| 2026-05-07 00:28 | 44.40750 | -67.04566 | 38000 ft | 441 kts | 252° |
| 2026-05-07 00:28 | 44.38947 | -67.12768 | 38000 ft | 441 kts | 254° |
| 2026-05-07 00:29 | 44.37253 | -67.21027 | 38000 ft | 442 kts | 254° |
| 2026-05-07 00:30 | 44.33836 | -67.37476 | 38000 ft | 442 kts | 253° |
| 2026-05-07 00:30 | 44.32094 | -67.45716 | 38000 ft | 442 kts | 253° |
| 2026-05-07 00:31 | 44.30347 | -67.53936 | 38000 ft | 442 kts | 253° |
| 2026-05-07 00:31 | 44.28594 | -67.62156 | 38000 ft | 442 kts | 253° |
| 2026-05-07 00:32 | 44.26836 | -67.70371 | 38000 ft | 442 kts | 253° |
| 2026-05-07 00:32 | 44.25083 | -67.78526 | 38000 ft | 442 kts | 253° |
| 2026-05-07 00:33 | 44.23314 | -67.86727 | 38000 ft | 442 kts | 253° |
| 2026-05-07 00:33 | 44.21538 | -67.94925 | 38000 ft | 442 kts | 253° |
| 2026-05-07 00:34 | 44.19756 | -68.03121 | 38000 ft | 442 kts | 253° |
| 2026-05-07 00:34 | 44.17968 | -68.11315 | 38000 ft | 442 kts | 253° |
| 2026-05-07 00:35 | 44.16188 | -68.19443 | 38000 ft | 442 kts | 253° |
| 2026-05-07 00:35 | 44.14388 | -68.27627 | 38000 ft | 442 kts | 253° |
| 2026-05-07 00:36 | 44.12581 | -68.35813 | 38000 ft | 442 kts | 253° |
| 2026-05-07 00:36 | 44.10773 | -68.43973 | 38000 ft | 442 kts | 253° |
| 2026-05-07 00:37 | 44.08956 | -68.52141 | 38000 ft | 442 kts | 253° |
| 2026-05-07 00:37 | 44.07141 | -68.60266 | 38000 ft | 442 kts | 253° |
| 2026-05-07 00:38 | 44.05312 | -68.68426 | 38000 ft | 442 kts | 252° |
| 2026-05-07 00:38 | 44.03474 | -68.76595 | 38000 ft | 442 kts | 252° |
| 2026-05-07 00:39 | 44.01647 | -68.84686 | 38000 ft | 442 kts | 252° |
| 2026-05-07 00:39 | 43.99801 | -68.92831 | 38000 ft | 442 kts | 252° |
| 2026-05-07 00:40 | 43.97950 | -69.00962 | 38000 ft | 442 kts | 252° |
| 2026-05-07 00:40 | 43.96092 | -69.09100 | 38000 ft | 442 kts | 252° |
| 2026-05-07 00:41 | 43.94229 | -69.17223 | 38000 ft | 442 kts | 252° |
| 2026-05-07 00:41 | 43.92361 | -69.25344 | 38000 ft | 442 kts | 252° |
| 2026-05-07 00:42 | 43.90487 | -69.33457 | 38000 ft | 442 kts | 252° |
| 2026-05-07 00:42 | 43.88619 | -69.41518 | 38000 ft | 442 kts | 252° |
| 2026-05-07 00:43 | 43.86734 | -69.49620 | 38000 ft | 442 kts | 252° |
| 2026-05-07 00:43 | 43.84837 | -69.57742 | 38000 ft | 442 kts | 252° |
| 2026-05-07 00:44 | 43.82940 | -69.65838 | 38000 ft | 442 kts | 252° |
| 2026-05-07 00:44 | 43.81039 | -69.73923 | 38000 ft | 442 kts | 252° |
| 2026-05-07 00:45 | 43.79142 | -69.81961 | 38000 ft | 442 kts | 252° |
| 2026-05-07 00:45 | 43.77227 | -69.90044 | 38000 ft | 442 kts | 252° |
| 2026-05-07 00:46 | 43.75305 | -69.98130 | 38000 ft | 442 kts | 252° |
| 2026-05-07 00:46 | 43.73706 | -70.04833 | 38000 ft | 442 kts | 252° |
| 2026-05-07 00:47 | 43.71773 | -70.12909 | 38000 ft | 442 kts | 252° |
| 2026-05-07 00:47 | 43.69838 | -70.20966 | 38000 ft | 442 kts | 251° |
| 2026-05-07 00:48 | 43.67895 | -70.29024 | 38000 ft | 442 kts | 251° |
| 2026-05-07 00:48 | 43.65957 | -70.37038 | 38000 ft | 442 kts | 251° |
| 2026-05-07 00:49 | 43.64004 | -70.45081 | 38000 ft | 442 kts | 251° |
| 2026-05-07 00:49 | 43.62039 | -70.53145 | 38000 ft | 442 kts | 251° |
| 2026-05-07 00:50 | 43.60086 | -70.61134 | 38000 ft | 442 kts | 251° |
| 2026-05-07 00:50 | 43.58114 | -70.69168 | 38000 ft | 442 kts | 251° |
| 2026-05-07 00:51 | 43.56124 | -70.77187 | 37999 ft | 442 kts | 249° |
| 2026-05-07 00:51 | 43.53157 | -70.84587 | 38000 ft | 442 kts | 231° |
| 2026-05-07 00:52 | 43.48604 | -70.90223 | 38001 ft | 442 kts | 213° |
| 2026-05-07 00:52 | 43.43311 | -70.94577 | 38000 ft | 444 kts | 210° |
| 2026-05-07 00:53 | 43.37903 | -70.98689 | 38000 ft | 444 kts | 209° |
| 2026-05-07 00:53 | 43.32510 | -71.02799 | 38000 ft | 443 kts | 209° |
| 2026-05-07 00:54 | 43.27130 | -71.06952 | 38000 ft | 443 kts | 210° |
| 2026-05-07 00:54 | 43.21792 | -71.11091 | 38000 ft | 443 kts | 210° |
| 2026-05-07 00:55 | 43.16410 | -71.15260 | 38000 ft | 443 kts | 210° |
| 2026-05-07 00:55 | 43.11031 | -71.19416 | 38000 ft | 443 kts | 210° |
| 2026-05-07 00:56 | 43.06025 | -71.24222 | 38000 ft | 442 kts | 224° |
| 2026-05-07 00:56 | 43.01964 | -71.30528 | 38000 ft | 442 kts | 231° |
| 2026-05-07 00:57 | 42.98082 | -71.37055 | 38000 ft | 442 kts | 231° |
| 2026-05-07 00:57 | 42.94199 | -71.43581 | 38000 ft | 442 kts | 231° |
| 2026-05-07 00:58 | 42.90311 | -71.50099 | 38000 ft | 442 kts | 231° |
| 2026-05-07 00:58 | 42.86422 | -71.56602 | 38000 ft | 442 kts | 231° |
| 2026-05-07 00:59 | 42.80784 | -71.66002 | 38000 ft | 442 kts | 231° |
| 2026-05-07 01:00 | 42.76700 | -71.72793 | 38000 ft | 443 kts | 231° |
| 2026-05-07 01:00 | 42.72790 | -71.79280 | 38000 ft | 443 kts | 231° |
| 2026-05-07 01:01 | 42.68871 | -71.85767 | 38000 ft | 444 kts | 231° |
| 2026-05-07 01:01 | 42.64970 | -71.92211 | 38000 ft | 444 kts | 231° |
| 2026-05-07 01:02 | 42.61032 | -71.98700 | 38000 ft | 444 kts | 231° |
| 2026-05-07 01:02 | 42.57101 | -72.05165 | 38000 ft | 444 kts | 231° |
| 2026-05-07 01:03 | 42.53163 | -72.11628 | 38000 ft | 444 kts | 230° |
| 2026-05-07 01:03 | 42.49223 | -72.18079 | 38000 ft | 444 kts | 230° |
| 2026-05-07 01:04 | 42.45307 | -72.24477 | 38000 ft | 444 kts | 230° |
| 2026-05-07 01:04 | 42.41363 | -72.30909 | 38000 ft | 443 kts | 230° |
| 2026-05-07 01:05 | 42.37417 | -72.37328 | 38000 ft | 443 kts | 230° |
| 2026-05-07 01:05 | 42.33471 | -72.43734 | 38000 ft | 444 kts | 230° |
| 2026-05-07 01:06 | 42.29540 | -72.50101 | 38000 ft | 443 kts | 230° |
| 2026-05-07 01:06 | 42.25590 | -72.56486 | 38000 ft | 443 kts | 230° |
| 2026-05-07 01:07 | 42.21634 | -72.62867 | 38000 ft | 442 kts | 230° |
| 2026-05-07 01:07 | 42.17678 | -72.69232 | 38000 ft | 443 kts | 230° |
| 2026-05-07 01:08 | 42.13799 | -72.75698 | 38000 ft | 442 kts | 232° |
| 2026-05-07 01:08 | 42.10022 | -72.82178 | 38000 ft | 442 kts | 232° |
| 2026-05-07 01:09 | 42.06211 | -72.88696 | 38000 ft | 443 kts | 232° |
| 2026-05-07 01:09 | 42.02387 | -72.95218 | 37999 ft | 443 kts | 232° |
| 2026-05-07 01:10 | 41.98555 | -73.01736 | 38000 ft | 444 kts | 232° |
| 2026-05-07 01:10 | 41.94726 | -73.08232 | 38000 ft | 443 kts | 232° |
| 2026-05-07 01:11 | 41.90885 | -73.14730 | 38000 ft | 444 kts | 232° |
| 2026-05-07 01:11 | 41.87037 | -73.21224 | 38000 ft | 444 kts | 231° |
| 2026-05-07 01:12 | 41.83215 | -73.27661 | 38000 ft | 444 kts | 231° |
| 2026-05-07 01:12 | 41.79360 | -73.34143 | 38000 ft | 444 kts | 231° |
| 2026-05-07 01:13 | 41.75503 | -73.40622 | 38000 ft | 444 kts | 231° |
| 2026-05-07 01:13 | 41.71637 | -73.47103 | 38000 ft | 444 kts | 231° |
| 2026-05-07 01:14 | 41.67806 | -73.53512 | 38000 ft | 443 kts | 231° |
| 2026-05-07 01:14 | 41.63955 | -73.59941 | 37831 ft | 441 kts | 231° |
| 2026-05-07 01:14 | 41.62029 | -73.63150 | 37286 ft | 440 kts | 231° |
| 2026-05-07 01:15 | 41.60113 | -73.66340 | 36738 ft | 440 kts | 231° |
| 2026-05-07 01:15 | 41.58200 | -73.69522 | 36233 ft | 439 kts | 231° |
| 2026-05-07 01:15 | 41.56281 | -73.72710 | 36021 ft | 440 kts | 231° |
| 2026-05-07 01:16 | 41.52425 | -73.79107 | 35998 ft | 443 kts | 231° |
| 2026-05-07 01:16 | 41.48265 | -73.85183 | 36000 ft | 443 kts | 225° |
| 2026-05-07 01:17 | 41.43954 | -73.90991 | 35999 ft | 444 kts | 225° |
| 2026-05-07 01:17 | 41.39595 | -73.96849 | 36001 ft | 443 kts | 225° |
| 2026-05-07 01:18 | 41.35257 | -74.02675 | 36000 ft | 443 kts | 225° |
| 2026-05-07 01:18 | 41.30908 | -74.08507 | 36000 ft | 444 kts | 225° |
| 2026-05-07 01:19 | 41.26555 | -74.14332 | 35999 ft | 444 kts | 225° |
| 2026-05-07 01:19 | 41.22209 | -74.20137 | 35998 ft | 443 kts | 225° |
| 2026-05-07 01:20 | 41.18207 | -74.26302 | 36001 ft | 443 kts | 237° |
| 2026-05-07 01:20 | 41.14950 | -74.33263 | 35921 ft | 443 kts | 239° |
| 2026-05-07 01:20 | 41.13358 | -74.36742 | 35373 ft | 443 kts | 239° |
| 2026-05-07 01:21 | 41.11754 | -74.40241 | 34785 ft | 442 kts | 239° |
| 2026-05-07 01:21 | 41.10155 | -74.43716 | 34172 ft | 441 kts | 239° |
| 2026-05-07 01:21 | 41.08570 | -74.47151 | 33513 ft | 442 kts | 238° |
| 2026-05-07 01:21 | 41.06963 | -74.50628 | 32821 ft | 443 kts | 238° |
| 2026-05-07 01:22 | 41.05353 | -74.54106 | 32092 ft | 444 kts | 238° |
| 2026-05-07 01:22 | 41.03734 | -74.57599 | 31338 ft | 445 kts | 238° |
| 2026-05-07 01:22 | 41.02111 | -74.61097 | 30557 ft | 446 kts | 238° |
| 2026-05-07 01:22 | 41.00487 | -74.64592 | 29830 ft | 446 kts | 238° |
| 2026-05-07 01:23 | 40.98862 | -74.68086 | 29192 ft | 442 kts | 238° |
| 2026-05-07 01:23 | 40.97254 | -74.71538 | 28609 ft | 438 kts | 238° |
| 2026-05-07 01:23 | 40.95662 | -74.74951 | 28147 ft | 434 kts | 238° |
| 2026-05-07 01:23 | 40.94078 | -74.78345 | 28018 ft | 433 kts | 238° |
| 2026-05-07 01:24 | 40.92494 | -74.81734 | 27998 ft | 434 kts | 238° |
| 2026-05-07 01:24 | 40.90903 | -74.85134 | 27997 ft | 433 kts | 238° |
| 2026-05-07 01:24 | 40.89320 | -74.88509 | 28001 ft | 433 kts | 238° |
| 2026-05-07 01:24 | 40.87730 | -74.91896 | 27997 ft | 432 kts | 238° |
| 2026-05-07 01:25 | 40.86164 | -74.95229 | 28000 ft | 433 kts | 238° |
| 2026-05-07 01:25 | 40.84575 | -74.98607 | 27997 ft | 433 kts | 238° |
| 2026-05-07 01:25 | 40.82986 | -75.01980 | 28010 ft | 432 kts | 238° |
| 2026-05-07 01:25 | 40.81410 | -75.05324 | 27997 ft | 432 kts | 238° |
| 2026-05-07 01:26 | 40.79809 | -75.08715 | 28012 ft | 430 kts | 238° |
| 2026-05-07 01:26 | 40.78228 | -75.12063 | 27998 ft | 429 kts | 238° |
| 2026-05-07 01:26 | 40.76649 | -75.15400 | 28000 ft | 429 kts | 238° |
| 2026-05-07 01:26 | 40.75064 | -75.18749 | 27997 ft | 430 kts | 238° |
| 2026-05-07 01:27 | 40.73481 | -75.22089 | 28000 ft | 430 kts | 238° |
| 2026-05-07 01:27 | 40.71892 | -75.25437 | 27959 ft | 429 kts | 238° |
| 2026-05-07 01:27 | 40.70312 | -75.28763 | 27388 ft | 427 kts | 238° |
| 2026-05-07 01:27 | 40.68769 | -75.32092 | 26785 ft | 423 kts | 239° |
| 2026-05-07 01:28 | 40.67300 | -75.35441 | 26222 ft | 419 kts | 240° |
| 2026-05-07 01:28 | 40.65861 | -75.38761 | 25654 ft | 414 kts | 240° |
| 2026-05-07 01:28 | 40.64456 | -75.42001 | 25074 ft | 411 kts | 240° |
| 2026-05-07 01:28 | 40.63041 | -75.45254 | 24445 ft | 408 kts | 240° |
| 2026-05-07 01:29 | 40.61635 | -75.48483 | 23868 ft | 404 kts | 240° |
| 2026-05-07 01:29 | 40.60244 | -75.51670 | 23293 ft | 400 kts | 240° |
| 2026-05-07 01:29 | 40.58864 | -75.54827 | 22673 ft | 397 kts | 240° |
| 2026-05-07 01:29 | 40.57488 | -75.57974 | 22061 ft | 394 kts | 240° |
| 2026-05-07 01:30 | 40.56127 | -75.61080 | 21463 ft | 390 kts | 240° |
| 2026-05-07 01:30 | 40.54778 | -75.64158 | 20867 ft | 387 kts | 240° |
| 2026-05-07 01:30 | 40.53440 | -75.67206 | 20317 ft | 383 kts | 240° |
| 2026-05-07 01:30 | 40.52111 | -75.70231 | 20050 ft | 381 kts | 240° |
| 2026-05-07 01:31 | 40.50784 | -75.73248 | 19999 ft | 381 kts | 240° |
| 2026-05-07 01:31 | 40.49457 | -75.76262 | 19999 ft | 381 kts | 240° |
| 2026-05-07 01:31 | 40.48131 | -75.79272 | 20004 ft | 381 kts | 240° |
| 2026-05-07 01:31 | 40.46800 | -75.82289 | 19999 ft | 381 kts | 240° |
| 2026-05-07 01:32 | 40.45923 | -75.84276 | 19998 ft | 381 kts | 240° |
| 2026-05-07 01:32 | 40.44565 | -75.87266 | 19999 ft | 381 kts | 237° |
| 2026-05-07 01:32 | 40.42932 | -75.90003 | 19999 ft | 381 kts | 227° |
| 2026-05-07 01:32 | 40.41066 | -75.92486 | 20000 ft | 381 kts | 224° |
| 2026-05-07 01:33 | 40.38536 | -75.95683 | 20003 ft | 381 kts | 224° |
| 2026-05-07 01:33 | 40.36628 | -75.98085 | 20003 ft | 381 kts | 224° |
| 2026-05-07 01:33 | 40.35332 | -75.99718 | 20000 ft | 381 kts | 224° |
| 2026-05-07 01:33 | 40.33442 | -76.02103 | 20004 ft | 381 kts | 224° |
| 2026-05-07 01:34 | 40.31530 | -76.04518 | 19998 ft | 381 kts | 224° |
| 2026-05-07 01:34 | 40.29618 | -76.06934 | 19998 ft | 381 kts | 224° |
| 2026-05-07 01:34 | 40.27709 | -76.09345 | 20003 ft | 381 kts | 224° |
| 2026-05-07 01:34 | 40.25802 | -76.11752 | 19999 ft | 381 kts | 224° |
| 2026-05-07 01:35 | 40.23883 | -76.14173 | 20004 ft | 381 kts | 224° |
| 2026-05-07 01:35 | 40.21992 | -76.16556 | 20003 ft | 369 kts | 224° |
| 2026-05-07 01:35 | 40.19631 | -76.19529 | 20010 ft | 344 kts | 224° |
| 2026-05-07 01:35 | 40.18487 | -76.20969 | 20008 ft | 332 kts | 224° |
| 2026-05-07 01:36 | 40.16857 | -76.23018 | 20006 ft | 316 kts | 224° |
| 2026-05-07 01:36 | 40.15306 | -76.24969 | 19905 ft | 305 kts | 224° |
| 2026-05-07 01:36 | 40.13780 | -76.26887 | 19273 ft | 313 kts | 224° |
| 2026-05-07 01:36 | 40.12240 | -76.28979 | 18443 ft | 325 kts | 231° |
| 2026-05-07 01:37 | 40.10910 | -76.31437 | 17555 ft | 336 kts | 238° |
| 2026-05-07 01:37 | 40.09667 | -76.34094 | 16597 ft | 347 kts | 239° |
| 2026-05-07 01:37 | 40.08417 | -76.36833 | 15767 ft | 354 kts | 239° |
| 2026-05-07 01:37 | 40.07157 | -76.39589 | 15088 ft | 353 kts | 239° |
| 2026-05-07 01:38 | 40.05900 | -76.42328 | 14480 ft | 350 kts | 239° |
| 2026-05-07 01:38 | 40.04663 | -76.45013 | 14156 ft | 338 kts | 239° |
| 2026-05-07 01:38 | 40.03494 | -76.47544 | 14081 ft | 320 kts | 239° |
| 2026-05-07 01:38 | 40.02379 | -76.49955 | 14096 ft | 301 kts | 239° |
| 2026-05-07 01:39 | 40.01326 | -76.52230 | 14081 ft | 284 kts | 239° |
| 2026-05-07 01:39 | 40.00334 | -76.54371 | 14097 ft | 268 kts | 239° |
| 2026-05-07 01:39 | 39.99394 | -76.56397 | 14097 ft | 254 kts | 239° |
| 2026-05-07 01:39 | 39.98503 | -76.58316 | 14080 ft | 241 kts | 239° |
| 2026-05-07 01:40 | 39.97660 | -76.60133 | 14096 ft | 228 kts | 239° |
| 2026-05-07 01:40 | 39.96861 | -76.61853 | 14096 ft | 215 kts | 239° |
| 2026-05-07 01:40 | 39.96106 | -76.63476 | 14082 ft | 203 kts | 239° |
| 2026-05-07 01:40 | 39.95398 | -76.64999 | 14081 ft | 190 kts | 239° |
| 2026-05-07 01:41 | 39.94733 | -76.66427 | 14054 ft | 179 kts | 239° |
| 2026-05-07 01:41 | 39.94073 | -76.67846 | 13716 ft | 186 kts | 239° |
| 2026-05-07 01:41 | 39.93395 | -76.69302 | 13431 ft | 189 kts | 239° |
| 2026-05-07 01:41 | 39.92725 | -76.70739 | 13294 ft | 183 kts | 239° |
| 2026-05-07 01:42 | 39.92102 | -76.72075 | 13403 ft | 161 kts | 239° |
| 2026-05-07 01:42 | 39.91495 | -76.73449 | 13420 ft | 206 kts | 243° |
| 2026-05-07 01:42 | 39.90686 | -76.75377 | 13414 ft | 270 kts | 239° |
| 2026-05-07 01:42 | 39.89616 | -76.77629 | 13363 ft | 319 kts | 238° |
| 2026-05-07 01:43 | 39.88393 | -76.80157 | 13335 ft | 331 kts | 238° |
| 2026-05-07 01:43 | 39.87195 | -76.82656 | 13169 ft | 319 kts | 238° |
| 2026-05-07 01:43 | 39.86042 | -76.85082 | 12866 ft | 311 kts | 238° |
| 2026-05-07 01:43 | 39.84917 | -76.87464 | 12786 ft | 308 kts | 238° |
| 2026-05-07 01:44 | 39.83797 | -76.89843 | 12784 ft | 308 kts | 239° |
| 2026-05-07 01:44 | 39.82676 | -76.92225 | 12784 ft | 309 kts | 239° |
| 2026-05-07 01:44 | 39.81556 | -76.94608 | 12787 ft | 309 kts | 239° |
| 2026-05-07 01:44 | 39.80435 | -76.96992 | 12785 ft | 309 kts | 239° |
| 2026-05-07 01:45 | 39.79317 | -76.99371 | 12786 ft | 309 kts | 239° |
| 2026-05-07 01:45 | 39.78198 | -77.01747 | 12786 ft | 309 kts | 239° |
| 2026-05-07 01:45 | 39.77089 | -77.04103 | 12785 ft | 309 kts | 239° |
| 2026-05-07 01:45 | 39.75966 | -77.06485 | 12785 ft | 309 kts | 238° |
| 2026-05-07 01:46 | 39.74843 | -77.08865 | 12787 ft | 309 kts | 238° |
| 2026-05-07 01:46 | 39.73720 | -77.11244 | 12567 ft | 308 kts | 238° |
| 2026-05-07 01:46 | 39.72595 | -77.13625 | 12062 ft | 307 kts | 238° |
| 2026-05-07 01:46 | 39.71485 | -77.15973 | 11604 ft | 304 kts | 238° |
| 2026-05-07 01:47 | 39.70380 | -77.18308 | 11146 ft | 301 kts | 238° |
| 2026-05-07 01:47 | 39.69296 | -77.20599 | 10653 ft | 299 kts | 238° |
| 2026-05-07 01:47 | 39.68086 | -77.22780 | 10191 ft | 297 kts | 228° |
| 2026-05-07 01:47 | 39.66632 | -77.24676 | 9725 ft | 295 kts | 224° |
| 2026-05-07 01:48 | 39.65129 | -77.26482 | 9285 ft | 293 kts | 223° |
| 2026-05-07 01:48 | 39.63629 | -77.28266 | 9093 ft | 292 kts | 223° |
| 2026-05-07 01:48 | 39.62134 | -77.30048 | 9081 ft | 292 kts | 223° |
| 2026-05-07 01:48 | 39.60633 | -77.31839 | 9085 ft | 292 kts | 223° |
| 2026-05-07 01:49 | 39.59144 | -77.33614 | 9084 ft | 287 kts | 222° |
| 2026-05-07 01:49 | 39.57494 | -77.35000 | 9038 ft | 289 kts | 201° |
| 2026-05-07 01:49 | 39.55512 | -77.35511 | 8513 ft | 292 kts | 183° |
| 2026-05-07 01:49 | 39.53485 | -77.35541 | 8046 ft | 290 kts | 180° |
| 2026-05-07 01:50 | 39.51474 | -77.35502 | 7596 ft | 287 kts | 179° |
| 2026-05-07 01:50 | 39.49482 | -77.35456 | 7127 ft | 285 kts | 179° |
| 2026-05-07 01:50 | 39.47508 | -77.35410 | 6667 ft | 283 kts | 179° |
| 2026-05-07 01:50 | 39.45542 | -77.35365 | 6198 ft | 281 kts | 179° |
| 2026-05-07 01:51 | 39.43589 | -77.35319 | 5728 ft | 280 kts | 179° |
| 2026-05-07 01:51 | 39.41653 | -77.35275 | 5296 ft | 277 kts | 179° |
| 2026-05-07 01:51 | 39.39726 | -77.35230 | 5105 ft | 276 kts | 179° |
| 2026-05-07 01:51 | 39.37798 | -77.35185 | 5083 ft | 277 kts | 179° |
| 2026-05-07 01:52 | 39.35873 | -77.35141 | 5085 ft | 277 kts | 179° |
| 2026-05-07 01:52 | 39.33951 | -77.35097 | 5086 ft | 277 kts | 179° |
| 2026-05-07 01:52 | 39.32025 | -77.35053 | 5085 ft | 277 kts | 179° |
| 2026-05-07 01:52 | 39.30127 | -77.35009 | 5085 ft | 277 kts | 179° |
| 2026-05-07 01:53 | 39.28201 | -77.34965 | 5086 ft | 277 kts | 179° |
| 2026-05-07 01:53 | 39.26277 | -77.34921 | 5085 ft | 277 kts | 179° |
| 2026-05-07 01:53 | 39.24349 | -77.34878 | 5085 ft | 277 kts | 179° |
| 2026-05-07 01:53 | 39.22425 | -77.34834 | 4887 ft | 276 kts | 179° |
| 2026-05-07 01:54 | 39.20505 | -77.34791 | 4410 ft | 276 kts | 179° |
| 2026-05-07 01:54 | 39.18593 | -77.34748 | 3956 ft | 273 kts | 179° |
| 2026-05-07 01:54 | 39.16692 | -77.34705 | 3508 ft | 272 kts | 179° |
| 2026-05-07 01:54 | 39.14809 | -77.34663 | 3162 ft | 269 kts | 179° |
| 2026-05-07 01:55 | 39.12940 | -77.34621 | 3091 ft | 269 kts | 179° |
| 2026-05-07 01:55 | 39.11067 | -77.34579 | 3089 ft | 269 kts | 179° |
| 2026-05-07 01:55 | 39.09220 | -77.34537 | 3087 ft | 269 kts | 179° |
| 2026-05-07 01:55 | 39.07347 | -77.34495 | 3084 ft | 268 kts | 179° |
| 2026-05-07 01:56 | 39.05477 | -77.34454 | 3088 ft | 268 kts | 179° |
| 2026-05-07 01:56 | 39.03606 | -77.34412 | 3087 ft | 268 kts | 179° |
| 2026-05-07 01:56 | 39.01739 | -77.34371 | 3087 ft | 269 kts | 179° |
| 2026-05-07 01:56 | 38.99861 | -77.34330 | 3084 ft | 269 kts | 179° |
| 2026-05-07 01:57 | 38.97993 | -77.34288 | 3087 ft | 269 kts | 179° |
| 2026-05-07 01:57 | 38.96124 | -77.34247 | 3087 ft | 269 kts | 179° |
| 2026-05-07 01:57 | 38.94255 | -77.34207 | 3081 ft | 268 kts | 179° |
| 2026-05-07 01:57 | 38.92455 | -77.34167 | 3098 ft | 248 kts | 179° |
| 2026-05-07 01:58 | 38.90822 | -77.34129 | 3110 ft | 228 kts | 179° |
| 2026-05-07 01:58 | 38.89245 | -77.34092 | 3099 ft | 225 kts | 179° |
| 2026-05-07 01:58 | 38.87676 | -77.34055 | 3086 ft | 226 kts | 179° |
| 2026-05-07 01:58 | 38.86106 | -77.34019 | 3086 ft | 226 kts | 179° |
| 2026-05-07 01:59 | 38.84532 | -77.33982 | 3089 ft | 226 kts | 179° |
| 2026-05-07 01:59 | 38.82959 | -77.33945 | 3084 ft | 226 kts | 179° |
| 2026-05-07 01:59 | 38.81386 | -77.33909 | 3084 ft | 226 kts | 179° |
| 2026-05-07 01:59 | 38.79816 | -77.33872 | 3084 ft | 226 kts | 179° |
| 2026-05-07 02:00 | 38.78260 | -77.33837 | 3085 ft | 226 kts | 179° |
| 2026-05-07 02:00 | 38.76688 | -77.33801 | 3086 ft | 226 kts | 179° |
| 2026-05-07 02:00 | 38.75114 | -77.33764 | 3083 ft | 226 kts | 179° |
| 2026-05-07 02:00 | 38.73570 | -77.33728 | 3086 ft | 214 kts | 179° |
| 2026-05-07 02:01 | 38.72152 | -77.33758 | 3093 ft | 197 kts | 190° |
| 2026-05-07 02:01 | 38.70986 | -77.34569 | 3091 ft | 192 kts | 228° |
| 2026-05-07 02:01 | 38.70442 | -77.36096 | 3086 ft | 191 kts | 260° |
| 2026-05-07 02:01 | 38.70336 | -77.37795 | 3090 ft | 191 kts | 268° |
| 2026-05-07 02:02 | 38.70314 | -77.39497 | 3087 ft | 191 kts | 269° |
| 2026-05-07 02:02 | 38.70319 | -77.41181 | 3088 ft | 191 kts | 275° |
| 2026-05-07 02:02 | 38.70862 | -77.42698 | 3078 ft | 192 kts | 317° |
| 2026-05-07 02:02 | 38.72015 | -77.43552 | 3090 ft | 192 kts | 337° |
| 2026-05-07 02:03 | 38.73318 | -77.43926 | 3087 ft | 193 kts | 355° |
| 2026-05-07 02:03 | 38.74658 | -77.43936 | 3086 ft | 193 kts | 1° |
| 2026-05-07 02:03 | 38.75979 | -77.43901 | 3085 ft | 186 kts | 0° |
| 2026-05-07 02:03 | 38.77263 | -77.43877 | 3086 ft | 182 kts | 0° |
| 2026-05-07 02:04 | 38.78532 | -77.43858 | 3027 ft | 179 kts | 360° |
| 2026-05-07 02:04 | 38.79753 | -77.43844 | 2799 ft | 173 kts | 360° |
| 2026-05-07 02:04 | 38.80932 | -77.43827 | 2563 ft | 171 kts | 0° |
| 2026-05-07 02:04 | 38.82120 | -77.43807 | 2327 ft | 170 kts | 0° |
| 2026-05-07 02:05 | 38.83303 | -77.43789 | 2097 ft | 170 kts | 0° |
| 2026-05-07 02:05 | 38.84477 | -77.43771 | 1873 ft | 165 kts | 0° |
| 2026-05-07 02:05 | 38.85581 | -77.43753 | 1676 ft | 154 kts | 360° |
| 2026-05-07 02:05 | 38.86647 | -77.43736 | 1456 ft | 154 kts | 360° |
| 2026-05-07 02:06 | 38.87723 | -77.43720 | 1260 ft | 153 kts | 360° |
| 2026-05-07 02:06 | 38.88785 | -77.43703 | 1048 ft | 152 kts | 0° |
| 2026-05-07 02:06 | 38.89841 | -77.43687 | 840 ft | 151 kts | 0° |
| 2026-05-07 02:06 | 38.90881 | -77.43671 | 650 ft | 151 kts | 0° |
| 2026-05-07 02:07 | 38.91930 | -77.43654 | 449 ft | 150 kts | 0° |
| 2026-05-07 02:07 | 38.93718 | -77.43625 | 300 ft | 81 kts | 0° |
| 2026-05-07 02:07 | 38.93996 | -77.43620 | 302 ft | 36 kts | 1° |
| 2026-05-07 02:08 | 38.94331 | -77.43629 | 301 ft | 52 kts | 348° |
| 2026-05-07 02:08 | 38.94482 | -77.43700 | 298 ft | 0 kts | 332° |
| 2026-05-07 02:09 | 38.94497 | -77.43710 | 301 ft | 9 kts | 332° |
| 2026-05-07 02:09 | 38.94591 | -77.43776 | 300 ft | 21 kts | 331° |
| 2026-05-07 02:09 | 38.94751 | -77.43850 | 294 ft | 28 kts | 358° |
| 2026-05-07 02:09 | 38.94849 | -77.43907 | 294 ft | 11 kts | 286° |
| 2026-05-07 02:10 | 38.94809 | -77.44021 | 299 ft | 16 kts | 223° |
| 2026-05-07 02:10 | 38.94709 | -77.44079 | 302 ft | 15 kts | 203° |
| 2026-05-07 02:10 | 38.94597 | -77.44108 | 304 ft | 5 kts | 180° |
| 2026-05-07 02:10 | 38.94586 | -77.44108 | 303 ft | 0 kts | 180° |